ITY110 KJFK-LIRF
Flight info
| Callsign | ITY110 |
|---|---|
| Flight time | N/A |
| Altitude | 39000 |
| Route | SHIPP Y487 ISLES DCT JENYY DCT DOVEY/M082F390 NATW ATSUR DCT TAKAS/N0474F390 DCT ALUTA DCT KORER DCT LEMKA DCT BEBIX/N0472F400 DCT VALKU/N0473F390 DCT TIS DCT MEBAK DCT GIPNO DCT BALSI DCT OBIGO DCT ROBEX DCT LAPRI/N0469F400 DCT MOGBO/N0469F390 DCT ELB L146 ELKAP |
| Aircraft | A332/H-SDE3GHIJ2J3J5M1RVWXY/LB2D1 |
Departure
| Time | 2026-05-04 22:01 |
|---|---|
| Airport | John F. Kennedy International Airport (KJFK) |
Arrival
| Time | N/A |
|---|---|
| Airport | Rome–Fiumicino Leonardo da Vinci International Airport (LIRF) |
| Time | Latitude | Longitude | Altitude | Speed | Heading |
|---|---|---|---|---|---|
| 2026-05-04 21:00 | 40.64075 | -73.79279 | 24 ft | 0 kts | 359° |
| 2026-05-04 21:36 | 40.64067 | -73.79278 | 28 ft | 3 kts | 18° |
| 2026-05-04 21:36 | 40.64048 | -73.79285 | 27 ft | 3 kts | 342° |
| 2026-05-04 21:37 | 40.64031 | -73.79271 | 29 ft | 3 kts | 290° |
| 2026-05-04 21:37 | 40.64028 | -73.79246 | 30 ft | 3 kts | 270° |
| 2026-05-04 21:37 | 40.64028 | -73.79223 | 30 ft | 1 kts | 268° |
| 2026-05-04 21:37 | 40.64028 | -73.79222 | 30 ft | 0 kts | 268° |
| 2026-05-04 21:38 | 40.64029 | -73.79216 | 30 ft | 3 kts | 279° |
| 2026-05-04 21:38 | 40.64026 | -73.79191 | 29 ft | 3 kts | 244° |
| 2026-05-04 21:38 | 40.64036 | -73.79171 | 30 ft | 3 kts | 241° |
| 2026-05-04 21:38 | 40.64048 | -73.79153 | 30 ft | 3 kts | 219° |
| 2026-05-04 21:39 | 40.64051 | -73.79151 | 24 ft | 0 kts | 229° |
| 2026-05-04 21:46 | 40.64050 | -73.79153 | 24 ft | 1 kts | 229° |
| 2026-05-04 21:46 | 40.64047 | -73.79158 | 27 ft | 1 kts | 229° |
| 2026-05-04 21:47 | 40.64041 | -73.79167 | 30 ft | 2 kts | 229° |
| 2026-05-04 21:47 | 40.64032 | -73.79181 | 30 ft | 4 kts | 229° |
| 2026-05-04 21:47 | 40.64011 | -73.79212 | 28 ft | 6 kts | 229° |
| 2026-05-04 21:47 | 40.63966 | -73.79274 | 26 ft | 11 kts | 225° |
| 2026-05-04 21:48 | 40.63900 | -73.79294 | 27 ft | 9 kts | 156° |
| 2026-05-04 21:48 | 40.63860 | -73.79232 | 29 ft | 9 kts | 123° |
| 2026-05-04 21:48 | 40.63828 | -73.79163 | 27 ft | 10 kts | 121° |
| 2026-05-04 21:48 | 40.63772 | -73.79041 | 29 ft | 20 kts | 121° |
| 2026-05-04 21:49 | 40.63704 | -73.78890 | 28 ft | 19 kts | 121° |
| 2026-05-04 21:49 | 40.63639 | -73.78749 | 31 ft | 18 kts | 121° |
| 2026-05-04 21:49 | 40.63580 | -73.78614 | 31 ft | 17 kts | 120° |
| 2026-05-04 21:49 | 40.63524 | -73.78487 | 31 ft | 16 kts | 120° |
| 2026-05-04 21:50 | 40.63464 | -73.78360 | 30 ft | 16 kts | 121° |
| 2026-05-04 21:50 | 40.63426 | -73.78278 | 29 ft | 16 kts | 121° |
| 2026-05-04 21:50 | 40.63356 | -73.78119 | 30 ft | 15 kts | 117° |
| 2026-05-04 21:50 | 40.63331 | -73.77988 | 25 ft | 15 kts | 91° |
| 2026-05-04 21:51 | 40.63343 | -73.77901 | 28 ft | 15 kts | 71° |
| 2026-05-04 21:51 | 40.63401 | -73.77797 | 31 ft | 14 kts | 40° |
| 2026-05-04 21:51 | 40.63487 | -73.77724 | 29 ft | 15 kts | 31° |
| 2026-05-04 21:51 | 40.63580 | -73.77650 | 28 ft | 16 kts | 31° |
| 2026-05-04 21:52 | 40.63677 | -73.77575 | 27 ft | 16 kts | 30° |
| 2026-05-04 21:52 | 40.63811 | -73.77470 | 27 ft | 17 kts | 31° |
| 2026-05-04 21:52 | 40.63878 | -73.77417 | 26 ft | 17 kts | 31° |
| 2026-05-04 21:52 | 40.63980 | -73.77339 | 30 ft | 17 kts | 31° |
| 2026-05-04 21:53 | 40.64082 | -73.77258 | 29 ft | 17 kts | 31° |
| 2026-05-04 21:53 | 40.64185 | -73.77178 | 28 ft | 17 kts | 31° |
| 2026-05-04 21:53 | 40.64290 | -73.77096 | 26 ft | 18 kts | 31° |
| 2026-05-04 21:53 | 40.64398 | -73.77015 | 28 ft | 18 kts | 24° |
| 2026-05-04 21:54 | 40.64520 | -73.76973 | 27 ft | 18 kts | 20° |
| 2026-05-04 21:54 | 40.64634 | -73.76896 | 27 ft | 18 kts | 30° |
| 2026-05-04 21:54 | 40.64743 | -73.76808 | 29 ft | 18 kts | 32° |
| 2026-05-04 21:54 | 40.64850 | -73.76721 | 28 ft | 18 kts | 31° |
| 2026-05-04 21:55 | 40.64959 | -73.76636 | 30 ft | 18 kts | 30° |
| 2026-05-04 21:55 | 40.65060 | -73.76556 | 29 ft | 14 kts | 31° |
| 2026-05-04 21:55 | 40.65076 | -73.76544 | 27 ft | 0 kts | 31° |
| 2026-05-04 21:56 | 40.65077 | -73.76544 | 30 ft | 0 kts | 31° |
| 2026-05-04 21:57 | 40.65093 | -73.76523 | 26 ft | 2 kts | 46° |
| 2026-05-04 21:57 | 40.65098 | -73.76510 | 30 ft | 2 kts | 67° |
| 2026-05-04 21:57 | 40.65098 | -73.76489 | 25 ft | 2 kts | 95° |
| 2026-05-04 21:57 | 40.65096 | -73.76473 | 25 ft | 0 kts | 102° |
| 2026-05-04 21:58 | 40.65094 | -73.76468 | 28 ft | 3 kts | 106° |
| 2026-05-04 21:59 | 40.65082 | -73.76434 | 31 ft | 7 kts | 118° |
| 2026-05-04 21:59 | 40.65053 | -73.76385 | 30 ft | 6 kts | 142° |
| 2026-05-04 21:59 | 40.65013 | -73.76375 | 30 ft | 6 kts | 187° |
| 2026-05-04 21:59 | 40.64972 | -73.76397 | 29 ft | 7 kts | 207° |
| 2026-05-04 22:00 | 40.64894 | -73.76453 | 25 ft | 32 kts | 210° |
| 2026-05-04 22:00 | 40.64547 | -73.76730 | 25 ft | 83 kts | 210° |
| 2026-05-04 22:00 | 40.63912 | -73.77220 | 28 ft | 126 kts | 211° |
| 2026-05-04 22:00 | 40.63069 | -73.77909 | 109 ft | 155 kts | 212° |
| 2026-05-04 22:01 | 40.62178 | -73.78728 | 590 ft | 157 kts | 212° |
| 2026-05-04 22:01 | 40.61265 | -73.79534 | 1130 ft | 161 kts | 212° |
| 2026-05-04 22:01 | 40.60324 | -73.80338 | 1710 ft | 163 kts | 212° |
| 2026-05-04 22:01 | 40.59312 | -73.81157 | 1968 ft | 179 kts | 213° |
| 2026-05-04 22:02 | 40.58210 | -73.82004 | 2295 ft | 194 kts | 211° |
| 2026-05-04 22:02 | 40.56977 | -73.82944 | 2492 ft | 215 kts | 213° |
| 2026-05-04 22:02 | 40.55622 | -73.83966 | 2761 ft | 230 kts | 212° |
| 2026-05-04 22:02 | 40.54191 | -73.85035 | 3053 ft | 246 kts | 212° |
| 2026-05-04 22:03 | 40.52684 | -73.86148 | 3713 ft | 249 kts | 211° |
| 2026-05-04 22:03 | 40.51027 | -73.86898 | 4435 ft | 257 kts | 189° |
| 2026-05-04 22:03 | 40.49252 | -73.86543 | 5049 ft | 266 kts | 161° |
| 2026-05-04 22:03 | 40.47732 | -73.85066 | 5703 ft | 282 kts | 133° |
| 2026-05-04 22:04 | 40.46800 | -73.82804 | 6472 ft | 289 kts | 112° |
| 2026-05-04 22:04 | 40.46205 | -73.80261 | 7226 ft | 293 kts | 107° |
| 2026-05-04 22:04 | 40.45645 | -73.77666 | 7938 ft | 298 kts | 108° |
| 2026-05-04 22:04 | 40.45027 | -73.75021 | 8659 ft | 303 kts | 109° |
| 2026-05-04 22:05 | 40.44387 | -73.72372 | 9375 ft | 308 kts | 109° |
| 2026-05-04 22:05 | 40.43728 | -73.69675 | 10058 ft | 313 kts | 109° |
| 2026-05-04 22:05 | 40.43046 | -73.66871 | 10385 ft | 331 kts | 109° |
| 2026-05-04 22:05 | 40.42337 | -73.63937 | 10636 ft | 350 kts | 109° |
| 2026-05-04 22:06 | 40.41581 | -73.60791 | 10871 ft | 370 kts | 108° |
| 2026-05-04 22:06 | 40.40789 | -73.57478 | 10926 ft | 391 kts | 108° |
| 2026-05-04 22:06 | 40.39965 | -73.54020 | 10936 ft | 398 kts | 108° |
| 2026-05-04 22:06 | 40.39136 | -73.50535 | 10941 ft | 399 kts | 108° |
| 2026-05-04 22:07 | 40.38309 | -73.47061 | 10953 ft | 398 kts | 108° |
| 2026-05-04 22:07 | 40.37483 | -73.43601 | 10954 ft | 398 kts | 108° |
| 2026-05-04 22:07 | 40.36652 | -73.40130 | 10951 ft | 398 kts | 108° |
| 2026-05-04 22:07 | 40.35818 | -73.36656 | 10955 ft | 398 kts | 108° |
| 2026-05-04 22:08 | 40.34994 | -73.33229 | 10957 ft | 398 kts | 108° |
| 2026-05-04 22:08 | 40.34158 | -73.29758 | 10953 ft | 398 kts | 108° |
| 2026-05-04 22:08 | 40.33271 | -73.26312 | 11033 ft | 399 kts | 115° |
| 2026-05-04 22:08 | 40.31987 | -73.23077 | 11616 ft | 399 kts | 121° |
| 2026-05-04 22:09 | 40.30579 | -73.19933 | 12269 ft | 401 kts | 123° |
| 2026-05-04 22:09 | 40.29102 | -73.16855 | 12855 ft | 404 kts | 124° |
| 2026-05-04 22:09 | 40.27553 | -73.13741 | 13425 ft | 408 kts | 125° |
| 2026-05-04 22:09 | 40.25975 | -73.10619 | 13967 ft | 412 kts | 126° |
| 2026-05-04 22:10 | 40.24367 | -73.07448 | 14479 ft | 416 kts | 125° |
| 2026-05-04 22:10 | 40.22764 | -73.04280 | 14982 ft | 420 kts | 125° |
| 2026-05-04 22:10 | 40.21164 | -73.01105 | 15496 ft | 423 kts | 125° |
| 2026-05-04 22:10 | 40.19518 | -72.97829 | 16002 ft | 427 kts | 125° |
| 2026-05-04 22:11 | 40.17882 | -72.94570 | 16531 ft | 430 kts | 125° |
| 2026-05-04 22:11 | 40.16245 | -72.91307 | 16977 ft | 435 kts | 124° |
| 2026-05-04 22:11 | 40.14576 | -72.87982 | 17462 ft | 438 kts | 124° |
| 2026-05-04 22:11 | 40.12889 | -72.84625 | 17967 ft | 441 kts | 124° |
| 2026-05-04 22:12 | 40.11213 | -72.81294 | 18434 ft | 444 kts | 124° |
| 2026-05-04 22:12 | 40.09538 | -72.77874 | 18844 ft | 448 kts | 122° |
| 2026-05-04 22:12 | 40.07918 | -72.74379 | 19244 ft | 451 kts | 121° |
| 2026-05-04 22:12 | 40.06319 | -72.70828 | 19693 ft | 453 kts | 121° |
| 2026-05-04 22:13 | 40.04740 | -72.67288 | 20085 ft | 456 kts | 120° |
| 2026-05-04 22:13 | 40.03133 | -72.63685 | 20491 ft | 459 kts | 120° |
| 2026-05-04 22:13 | 40.01516 | -72.60079 | 20895 ft | 461 kts | 121° |
| 2026-05-04 22:13 | 39.99884 | -72.56461 | 21309 ft | 463 kts | 121° |
| 2026-05-04 22:14 | 39.98232 | -72.52816 | 21713 ft | 466 kts | 121° |
| 2026-05-04 22:14 | 39.96592 | -72.49205 | 22092 ft | 469 kts | 121° |
| 2026-05-04 22:14 | 39.94925 | -72.45514 | 22455 ft | 471 kts | 120° |
| 2026-05-04 22:14 | 39.93262 | -72.41817 | 22843 ft | 474 kts | 120° |
| 2026-05-04 22:15 | 39.92153 | -72.39351 | 22989 ft | 475 kts | 120° |
| 2026-05-04 22:15 | 39.90477 | -72.35625 | 23012 ft | 476 kts | 120° |
| 2026-05-04 22:15 | 39.88247 | -72.30672 | 23015 ft | 476 kts | 120° |
| 2026-05-04 22:15 | 39.87110 | -72.28153 | 23014 ft | 476 kts | 120° |
| 2026-05-04 22:16 | 39.85449 | -72.24475 | 23024 ft | 476 kts | 120° |
| 2026-05-04 22:16 | 39.83766 | -72.20755 | 23021 ft | 476 kts | 120° |
| 2026-05-04 22:16 | 39.82078 | -72.17032 | 23021 ft | 476 kts | 120° |
| 2026-05-04 22:16 | 39.80396 | -72.13325 | 23020 ft | 476 kts | 120° |
| 2026-05-04 22:17 | 39.78707 | -72.09606 | 23021 ft | 476 kts | 120° |
| 2026-05-04 22:17 | 39.77018 | -72.05894 | 23021 ft | 476 kts | 121° |
| 2026-05-04 22:17 | 39.75352 | -72.02234 | 23025 ft | 476 kts | 121° |
| 2026-05-04 22:17 | 39.73660 | -71.98522 | 23026 ft | 476 kts | 121° |
| 2026-05-04 22:18 | 39.71969 | -71.94819 | 23029 ft | 476 kts | 121° |
| 2026-05-04 22:18 | 39.70275 | -71.91112 | 23029 ft | 476 kts | 121° |
| 2026-05-04 22:18 | 39.68582 | -71.87410 | 23024 ft | 476 kts | 121° |
| 2026-05-04 22:18 | 39.66885 | -71.83706 | 23034 ft | 477 kts | 121° |
| 2026-05-04 22:19 | 39.65206 | -71.80044 | 23034 ft | 477 kts | 121° |
| 2026-05-04 22:19 | 39.63503 | -71.76336 | 23035 ft | 477 kts | 121° |
| 2026-05-04 22:19 | 39.61798 | -71.72626 | 23037 ft | 477 kts | 121° |
| 2026-05-04 22:19 | 39.60089 | -71.68914 | 23042 ft | 477 kts | 121° |
| 2026-05-04 22:20 | 39.58386 | -71.65216 | 23042 ft | 477 kts | 121° |
| 2026-05-04 22:20 | 39.56681 | -71.61520 | 23042 ft | 477 kts | 121° |
| 2026-05-04 22:20 | 39.54990 | -71.57860 | 23042 ft | 477 kts | 121° |
| 2026-05-04 22:20 | 39.53284 | -71.54169 | 23050 ft | 477 kts | 121° |
| 2026-05-04 22:21 | 39.51579 | -71.50486 | 23044 ft | 478 kts | 121° |
| 2026-05-04 22:21 | 39.49857 | -71.46772 | 23046 ft | 478 kts | 121° |
| 2026-05-04 22:21 | 39.48144 | -71.43081 | 23048 ft | 478 kts | 121° |
| 2026-05-04 22:21 | 39.46509 | -71.39324 | 23047 ft | 478 kts | 116° |
| 2026-05-04 22:22 | 39.45228 | -71.35416 | 23048 ft | 477 kts | 108° |
| 2026-05-04 22:22 | 39.44376 | -71.31259 | 23048 ft | 476 kts | 98° |
| 2026-05-04 22:22 | 39.44044 | -71.27004 | 23089 ft | 474 kts | 88° |
| 2026-05-04 22:22 | 39.44265 | -71.22746 | 23419 ft | 473 kts | 78° |
| 2026-05-04 22:23 | 39.44825 | -71.18548 | 23800 ft | 473 kts | 75° |
| 2026-05-04 22:23 | 39.45510 | -71.14361 | 24138 ft | 474 kts | 74° |
| 2026-05-04 22:23 | 39.46239 | -71.10259 | 24470 ft | 475 kts | 73° |
| 2026-05-04 22:23 | 39.47001 | -71.06072 | 24805 ft | 477 kts | 73° |
| 2026-05-04 22:24 | 39.47759 | -71.01882 | 25138 ft | 479 kts | 73° |
| 2026-05-04 22:24 | 39.48508 | -70.97668 | 25464 ft | 480 kts | 73° |
| 2026-05-04 22:24 | 39.49246 | -70.93441 | 25780 ft | 482 kts | 73° |
| 2026-05-04 22:24 | 39.49978 | -70.89194 | 26088 ft | 484 kts | 74° |
| 2026-05-04 22:25 | 39.50709 | -70.84909 | 26428 ft | 485 kts | 74° |
| 2026-05-04 22:25 | 39.51434 | -70.80637 | 26731 ft | 486 kts | 74° |
| 2026-05-04 22:25 | 39.52154 | -70.76385 | 27014 ft | 489 kts | 74° |
| 2026-05-04 22:25 | 39.52882 | -70.72072 | 27301 ft | 491 kts | 74° |
| 2026-05-04 22:26 | 39.53614 | -70.67726 | 27591 ft | 493 kts | 74° |
| 2026-05-04 22:26 | 39.54344 | -70.63388 | 27869 ft | 494 kts | 74° |
| 2026-05-04 22:26 | 39.55077 | -70.59022 | 28154 ft | 496 kts | 74° |
| 2026-05-04 22:26 | 39.55803 | -70.54686 | 28434 ft | 498 kts | 74° |
| 2026-05-04 22:27 | 39.56536 | -70.50301 | 28750 ft | 499 kts | 74° |
| 2026-05-04 22:27 | 39.57274 | -70.45871 | 29021 ft | 500 kts | 74° |
| 2026-05-04 22:27 | 39.58010 | -70.41450 | 29276 ft | 502 kts | 74° |
| 2026-05-04 22:27 | 39.58744 | -70.37022 | 29570 ft | 503 kts | 74° |
| 2026-05-04 22:28 | 39.59477 | -70.32590 | 29945 ft | 502 kts | 74° |
| 2026-05-04 22:28 | 39.60205 | -70.28168 | 30304 ft | 501 kts | 74° |
| 2026-05-04 22:28 | 39.60924 | -70.23795 | 30556 ft | 501 kts | 74° |
| 2026-05-04 22:28 | 39.61652 | -70.19362 | 30810 ft | 502 kts | 75° |
| 2026-05-04 22:29 | 39.62382 | -70.14914 | 31018 ft | 504 kts | 75° |
| 2026-05-04 22:29 | 39.63113 | -70.10440 | 31253 ft | 505 kts | 75° |
| 2026-05-04 22:29 | 39.63841 | -70.05972 | 31513 ft | 506 kts | 75° |
| 2026-05-04 22:29 | 39.64568 | -70.01495 | 31765 ft | 506 kts | 75° |
| 2026-05-04 22:30 | 39.65288 | -69.97054 | 31983 ft | 507 kts | 76° |
| 2026-05-04 22:30 | 39.66015 | -69.92561 | 32219 ft | 508 kts | 76° |
| 2026-05-04 22:30 | 39.66741 | -69.88058 | 32449 ft | 509 kts | 76° |
| 2026-05-04 22:30 | 39.67465 | -69.83560 | 32627 ft | 511 kts | 77° |
| 2026-05-04 22:31 | 39.68196 | -69.79004 | 32743 ft | 514 kts | 77° |
| 2026-05-04 22:31 | 39.68920 | -69.74479 | 32975 ft | 514 kts | 77° |
| 2026-05-04 22:31 | 39.69648 | -69.69915 | 33205 ft | 515 kts | 77° |
| 2026-05-04 22:31 | 39.70376 | -69.65342 | 33435 ft | 516 kts | 77° |
| 2026-05-04 22:32 | 39.71100 | -69.60781 | 33628 ft | 516 kts | 78° |
| 2026-05-04 22:32 | 39.71825 | -69.56197 | 33840 ft | 517 kts | 78° |
| 2026-05-04 22:32 | 39.72539 | -69.51676 | 34119 ft | 516 kts | 78° |
| 2026-05-04 22:33 | 39.73990 | -69.42454 | 34293 ft | 522 kts | 78° |
| 2026-05-04 22:33 | 39.74716 | -69.37817 | 34500 ft | 522 kts | 78° |
| 2026-05-04 22:33 | 39.75438 | -69.33197 | 34708 ft | 521 kts | 78° |
| 2026-05-04 22:33 | 39.76158 | -69.28577 | 34895 ft | 521 kts | 78° |
| 2026-05-04 22:34 | 39.76878 | -69.23940 | 35076 ft | 522 kts | 78° |
| 2026-05-04 22:34 | 39.77596 | -69.19306 | 35232 ft | 522 kts | 78° |
| 2026-05-04 22:34 | 39.78314 | -69.14660 | 35268 ft | 526 kts | 79° |
| 2026-05-04 22:35 | 39.79749 | -69.05328 | 35532 ft | 528 kts | 79° |
| 2026-05-04 22:35 | 39.80468 | -69.00634 | 35744 ft | 527 kts | 79° |
| 2026-05-04 22:35 | 39.81185 | -68.95939 | 35935 ft | 527 kts | 79° |
| 2026-05-04 22:35 | 39.81899 | -68.91250 | 36155 ft | 526 kts | 79° |
| 2026-05-04 22:36 | 39.82600 | -68.86629 | 36421 ft | 524 kts | 79° |
| 2026-05-04 22:36 | 39.84018 | -68.77258 | 36533 ft | 529 kts | 79° |
| 2026-05-04 22:36 | 39.84729 | -68.72538 | 36683 ft | 530 kts | 79° |
| 2026-05-04 22:37 | 39.85427 | -68.67890 | 36865 ft | 529 kts | 79° |
| 2026-05-04 22:37 | 39.86130 | -68.63189 | 37037 ft | 529 kts | 79° |
| 2026-05-04 22:37 | 39.86833 | -68.58485 | 37202 ft | 529 kts | 79° |
| 2026-05-04 22:37 | 39.87532 | -68.53784 | 37368 ft | 528 kts | 80° |
| 2026-05-04 22:38 | 39.88234 | -68.49059 | 37452 ft | 530 kts | 80° |
| 2026-05-04 22:38 | 39.89621 | -68.39669 | 37682 ft | 531 kts | 80° |
| 2026-05-04 22:38 | 39.90315 | -68.34948 | 37858 ft | 531 kts | 80° |
| 2026-05-04 22:39 | 39.91010 | -68.30208 | 38058 ft | 530 kts | 80° |
| 2026-05-04 22:39 | 39.91701 | -68.25486 | 38284 ft | 529 kts | 80° |
| 2026-05-04 22:39 | 39.92425 | -68.20773 | 38417 ft | 529 kts | 76° |
| 2026-05-04 22:40 | 39.95289 | -68.11995 | 38321 ft | 534 kts | 54° |
| 2026-05-04 22:40 | 39.97616 | -68.08248 | 38398 ft | 530 kts | 41° |
| 2026-05-04 22:40 | 40.00404 | -68.05116 | 38547 ft | 526 kts | 34° |
| 2026-05-04 22:40 | 40.03336 | -68.02216 | 38714 ft | 524 kts | 32° |
| 2026-05-04 22:41 | 40.06263 | -67.99483 | 38846 ft | 523 kts | 31° |
| 2026-05-04 22:41 | 40.09241 | -67.96770 | 39039 ft | 521 kts | 31° |
| 2026-05-04 22:41 | 40.12216 | -67.94072 | 39081 ft | 520 kts | 31° |
| 2026-05-04 22:42 | 40.18167 | -67.88626 | 39091 ft | 519 kts | 31° |
| 2026-05-04 22:42 | 40.24047 | -67.83171 | 39101 ft | 519 kts | 31° |
| 2026-05-04 22:43 | 40.29917 | -67.77684 | 39090 ft | 518 kts | 31° |
| 2026-05-04 22:43 | 40.35758 | -67.72210 | 39081 ft | 517 kts | 31° |
| 2026-05-04 22:44 | 40.41592 | -67.66733 | 39103 ft | 517 kts | 31° |
| 2026-05-04 22:44 | 40.47452 | -67.61220 | 39082 ft | 515 kts | 31° |
| 2026-05-04 22:45 | 40.53246 | -67.55758 | 39082 ft | 515 kts | 31° |
| 2026-05-04 22:45 | 40.61979 | -67.47507 | 39075 ft | 518 kts | 32° |
| 2026-05-04 22:46 | 40.67869 | -67.41925 | 39073 ft | 520 kts | 32° |
| 2026-05-04 22:46 | 40.73715 | -67.36371 | 39086 ft | 519 kts | 32° |
| 2026-05-04 22:47 | 40.79547 | -67.30817 | 39075 ft | 518 kts | 32° |
| 2026-05-04 22:47 | 40.85410 | -67.25223 | 39067 ft | 518 kts | 32° |
| 2026-05-04 22:48 | 40.91244 | -67.19644 | 39077 ft | 518 kts | 32° |
| 2026-05-04 22:48 | 40.97077 | -67.14055 | 39065 ft | 520 kts | 32° |
| 2026-05-04 22:49 | 41.02943 | -67.08421 | 39067 ft | 520 kts | 32° |
| 2026-05-04 22:49 | 41.08512 | -67.02260 | 39084 ft | 526 kts | 45° |
| 2026-05-04 22:50 | 41.10728 | -66.98375 | 39061 ft | 528 kts | 57° |
| 2026-05-04 22:50 | 41.12341 | -66.94055 | 39062 ft | 529 kts | 70° |
| 2026-05-04 22:50 | 41.14253 | -66.84591 | 39063 ft | 530 kts | 78° |
| 2026-05-04 22:51 | 41.15718 | -66.75025 | 39065 ft | 533 kts | 80° |
| 2026-05-04 22:51 | 41.17151 | -66.65310 | 39064 ft | 533 kts | 80° |
| 2026-05-04 22:52 | 41.18602 | -66.55721 | 39055 ft | 533 kts | 79° |
| 2026-05-04 22:52 | 41.19838 | -66.47668 | 39062 ft | 534 kts | 79° |
| 2026-05-04 22:53 | 41.21566 | -66.36398 | 39066 ft | 534 kts | 79° |
| 2026-05-04 22:53 | 41.22793 | -66.28351 | 39068 ft | 534 kts | 79° |
| 2026-05-04 22:54 | 41.24265 | -66.18637 | 39066 ft | 535 kts | 80° |
| 2026-05-04 22:54 | 41.25727 | -66.08918 | 39075 ft | 536 kts | 80° |
| 2026-05-04 22:55 | 41.27175 | -65.99233 | 39068 ft | 536 kts | 80° |
| 2026-05-04 22:55 | 41.28624 | -65.89484 | 39063 ft | 536 kts | 80° |
| 2026-05-04 22:56 | 41.30064 | -65.79735 | 39068 ft | 538 kts | 81° |
| 2026-05-04 22:56 | 41.31494 | -65.69999 | 39073 ft | 538 kts | 81° |
| 2026-05-04 22:57 | 41.32925 | -65.60193 | 39050 ft | 538 kts | 81° |
| 2026-05-04 22:57 | 41.34345 | -65.50399 | 39092 ft | 540 kts | 81° |
| 2026-05-04 22:58 | 41.35761 | -65.40572 | 39071 ft | 540 kts | 81° |
| 2026-05-04 22:58 | 41.37159 | -65.30805 | 39077 ft | 539 kts | 81° |
| 2026-05-04 22:59 | 41.38560 | -65.20963 | 39073 ft | 541 kts | 81° |
| 2026-05-04 22:59 | 41.39948 | -65.11141 | 39073 ft | 542 kts | 81° |
| 2026-05-04 23:00 | 41.41337 | -65.01253 | 39078 ft | 542 kts | 81° |
| 2026-05-04 23:00 | 41.42717 | -64.91359 | 39075 ft | 542 kts | 81° |
| 2026-05-04 23:01 | 41.44083 | -64.81506 | 39075 ft | 543 kts | 81° |
| 2026-05-04 23:01 | 41.45450 | -64.71580 | 39075 ft | 543 kts | 81° |
| 2026-05-04 23:02 | 41.46810 | -64.61632 | 39074 ft | 543 kts | 81° |
| 2026-05-04 23:02 | 41.48148 | -64.51791 | 39073 ft | 542 kts | 81° |
| 2026-05-04 23:03 | 41.49486 | -64.41871 | 39084 ft | 542 kts | 82° |
| 2026-05-04 23:03 | 41.50814 | -64.31970 | 39069 ft | 542 kts | 82° |
| 2026-05-04 23:04 | 41.52137 | -64.22028 | 39080 ft | 543 kts | 82° |
| 2026-05-04 23:04 | 41.53443 | -64.12148 | 39072 ft | 543 kts | 82° |
| 2026-05-04 23:05 | 41.54750 | -64.02195 | 39057 ft | 543 kts | 82° |
| 2026-05-04 23:05 | 41.56046 | -63.92252 | 39087 ft | 544 kts | 82° |
| 2026-05-04 23:06 | 41.57339 | -63.82272 | 39077 ft | 543 kts | 82° |
| 2026-05-04 23:06 | 41.58619 | -63.72312 | 39057 ft | 543 kts | 82° |
| 2026-05-04 23:07 | 41.59893 | -63.62332 | 39072 ft | 544 kts | 82° |
| 2026-05-04 23:07 | 41.61151 | -63.52409 | 39072 ft | 544 kts | 82° |
| 2026-05-04 23:08 | 41.62408 | -63.42420 | 39045 ft | 544 kts | 83° |
| 2026-05-04 23:08 | 41.63650 | -63.32472 | 39066 ft | 545 kts | 83° |
| 2026-05-04 23:09 | 41.64893 | -63.22445 | 39083 ft | 545 kts | 83° |
| 2026-05-04 23:09 | 41.66127 | -63.12419 | 39057 ft | 545 kts | 83° |
| 2026-05-04 23:10 | 41.67354 | -63.02379 | 39074 ft | 547 kts | 84° |
| 2026-05-04 23:10 | 41.68566 | -62.92380 | 39073 ft | 548 kts | 83° |
| 2026-05-04 23:11 | 41.69778 | -62.82306 | 39072 ft | 546 kts | 83° |
| 2026-05-04 23:11 | 41.70982 | -62.72235 | 39068 ft | 547 kts | 84° |
| 2026-05-04 23:12 | 41.72171 | -62.62191 | 39069 ft | 549 kts | 84° |
| 2026-05-04 23:12 | 41.73363 | -62.52052 | 39068 ft | 549 kts | 84° |
| 2026-05-04 23:13 | 41.74542 | -62.41945 | 39084 ft | 549 kts | 84° |
| 2026-05-04 23:13 | 41.75706 | -62.31891 | 39062 ft | 549 kts | 84° |
| 2026-05-04 23:14 | 41.76871 | -62.21742 | 39067 ft | 552 kts | 85° |
| 2026-05-04 23:14 | 41.78035 | -62.11519 | 39063 ft | 553 kts | 85° |
| 2026-05-04 23:15 | 41.79183 | -62.01360 | 39063 ft | 553 kts | 85° |
| 2026-05-04 23:15 | 41.80327 | -61.91153 | 39077 ft | 553 kts | 84° |
| 2026-05-04 23:16 | 41.81463 | -61.80931 | 39067 ft | 555 kts | 85° |
| 2026-05-04 23:16 | 41.82593 | -61.70675 | 39064 ft | 556 kts | 85° |
| 2026-05-04 23:17 | 41.83712 | -61.60437 | 39064 ft | 556 kts | 85° |
| 2026-05-04 23:17 | 41.84823 | -61.50182 | 39060 ft | 556 kts | 85° |
| 2026-05-04 23:18 | 41.85932 | -61.39861 | 39080 ft | 557 kts | 85° |
| 2026-05-04 23:18 | 41.87031 | -61.29527 | 39059 ft | 559 kts | 85° |
| 2026-05-04 23:19 | 41.88118 | -61.19232 | 39057 ft | 559 kts | 85° |
| 2026-05-04 23:19 | 41.89202 | -61.08879 | 39060 ft | 559 kts | 85° |
| 2026-05-04 23:20 | 41.90270 | -60.98585 | 39059 ft | 559 kts | 86° |
| 2026-05-04 23:20 | 41.91334 | -60.88227 | 39076 ft | 559 kts | 85° |
| 2026-05-04 23:21 | 41.92387 | -60.77883 | 39062 ft | 558 kts | 86° |
| 2026-05-04 23:21 | 41.93425 | -60.67595 | 39061 ft | 558 kts | 86° |
| 2026-05-04 23:22 | 41.94463 | -60.57213 | 39034 ft | 558 kts | 86° |
| 2026-05-04 23:22 | 41.95490 | -60.46842 | 39062 ft | 561 kts | 86° |
| 2026-05-04 23:23 | 41.96506 | -60.36475 | 39085 ft | 562 kts | 86° |
| 2026-05-04 23:23 | 41.97520 | -60.26049 | 39065 ft | 560 kts | 86° |
| 2026-05-04 23:24 | 41.98522 | -60.15650 | 39069 ft | 560 kts | 86° |
| 2026-05-04 23:24 | 41.99509 | -60.05282 | 39067 ft | 562 kts | 86° |
| 2026-05-04 23:25 | 42.01304 | -59.94967 | 39072 ft | 568 kts | 75° |
| 2026-05-04 23:25 | 42.03721 | -59.84888 | 39068 ft | 569 kts | 73° |
| 2026-05-04 23:26 | 42.06261 | -59.74816 | 39070 ft | 568 kts | 72° |
| 2026-05-04 23:26 | 42.08788 | -59.64760 | 39070 ft | 568 kts | 73° |
| 2026-05-04 23:27 | 42.11299 | -59.54632 | 39069 ft | 569 kts | 73° |
| 2026-05-04 23:27 | 42.13377 | -59.46176 | 39072 ft | 572 kts | 73° |
| 2026-05-04 23:28 | 42.15873 | -59.35977 | 39075 ft | 571 kts | 73° |
| 2026-05-04 23:28 | 42.18339 | -59.25859 | 39073 ft | 571 kts | 73° |
| 2026-05-04 23:29 | 42.20817 | -59.15653 | 39086 ft | 571 kts | 73° |
| 2026-05-04 23:29 | 42.23267 | -59.05514 | 39075 ft | 569 kts | 73° |
| 2026-05-04 23:30 | 42.25704 | -58.95382 | 39076 ft | 571 kts | 74° |
| 2026-05-04 23:30 | 42.28168 | -58.85089 | 39074 ft | 576 kts | 74° |
| 2026-05-04 23:31 | 42.30623 | -58.74795 | 39077 ft | 577 kts | 74° |
| 2026-05-04 23:31 | 42.33073 | -58.64480 | 39078 ft | 576 kts | 74° |
| 2026-05-04 23:32 | 42.35501 | -58.54206 | 39077 ft | 576 kts | 74° |
| 2026-05-04 23:32 | 42.37931 | -58.43870 | 39063 ft | 576 kts | 74° |
| 2026-05-04 23:33 | 42.40364 | -58.33474 | 39080 ft | 581 kts | 74° |
| 2026-05-04 23:33 | 42.42794 | -58.23048 | 39080 ft | 581 kts | 74° |
| 2026-05-04 23:34 | 42.45207 | -58.12647 | 39081 ft | 581 kts | 75° |
| 2026-05-04 23:34 | 42.47627 | -58.02167 | 39094 ft | 581 kts | 74° |
| 2026-05-04 23:35 | 42.50015 | -57.91772 | 39080 ft | 578 kts | 74° |
| 2026-05-04 23:35 | 42.52385 | -57.81411 | 39082 ft | 578 kts | 75° |
| 2026-05-04 23:36 | 42.54777 | -57.70896 | 39082 ft | 584 kts | 75° |
| 2026-05-04 23:36 | 42.57161 | -57.60369 | 39085 ft | 586 kts | 75° |
| 2026-05-04 23:37 | 42.59542 | -57.49817 | 39087 ft | 582 kts | 75° |
| 2026-05-04 23:37 | 42.61890 | -57.39355 | 39086 ft | 581 kts | 75° |
| 2026-05-04 23:38 | 42.64233 | -57.28859 | 39057 ft | 581 kts | 75° |
| 2026-05-04 23:38 | 42.66583 | -57.18275 | 39081 ft | 586 kts | 75° |
| 2026-05-04 23:39 | 42.68920 | -57.07705 | 39083 ft | 585 kts | 75° |
| 2026-05-04 23:39 | 42.71256 | -56.97093 | 39087 ft | 585 kts | 75° |
| 2026-05-04 23:40 | 42.73573 | -56.86512 | 39088 ft | 584 kts | 75° |
| 2026-05-04 23:40 | 42.75888 | -56.75885 | 39086 ft | 582 kts | 75° |
| 2026-05-04 23:41 | 42.78172 | -56.65349 | 39086 ft | 583 kts | 75° |
| 2026-05-04 23:41 | 42.80462 | -56.54725 | 39081 ft | 589 kts | 75° |
| 2026-05-04 23:42 | 42.82775 | -56.43942 | 39078 ft | 593 kts | 75° |
| 2026-05-04 23:42 | 42.85066 | -56.33215 | 39083 ft | 589 kts | 75° |
| 2026-05-04 23:43 | 42.87351 | -56.22464 | 39079 ft | 588 kts | 75° |
| 2026-05-04 23:43 | 42.89606 | -56.11791 | 39079 ft | 588 kts | 75° |
| 2026-05-04 23:44 | 42.91864 | -56.01044 | 39078 ft | 593 kts | 75° |
| 2026-05-04 23:44 | 42.94148 | -55.90122 | 39085 ft | 598 kts | 75° |
| 2026-05-04 23:45 | 42.96409 | -55.79253 | 39079 ft | 598 kts | 76° |
| 2026-05-04 23:45 | 42.98676 | -55.68306 | 39090 ft | 597 kts | 76° |
| 2026-05-04 23:46 | 43.00908 | -55.57465 | 39080 ft | 591 kts | 76° |
| 2026-05-04 23:46 | 43.03113 | -55.46692 | 39081 ft | 590 kts | 76° |
| 2026-05-04 23:47 | 43.05321 | -55.35849 | 39079 ft | 591 kts | 76° |
| 2026-05-04 23:47 | 43.07514 | -55.25018 | 39080 ft | 589 kts | 76° |
| 2026-05-04 23:48 | 43.09676 | -55.14290 | 39080 ft | 586 kts | 76° |
| 2026-05-04 23:48 | 43.11844 | -55.03474 | 39085 ft | 586 kts | 76° |
| 2026-05-04 23:49 | 43.13986 | -54.92723 | 39085 ft | 586 kts | 76° |
| 2026-05-04 23:49 | 43.16130 | -54.81905 | 39094 ft | 590 kts | 76° |
| 2026-05-04 23:50 | 43.18270 | -54.71051 | 39091 ft | 596 kts | 76° |
| 2026-05-04 23:50 | 43.20433 | -54.60017 | 39089 ft | 598 kts | 76° |
| 2026-05-04 23:51 | 43.22577 | -54.49027 | 39086 ft | 596 kts | 76° |
| 2026-05-04 23:51 | 43.24698 | -54.38091 | 39098 ft | 595 kts | 76° |
| 2026-05-04 23:52 | 43.26817 | -54.27096 | 39081 ft | 595 kts | 76° |
| 2026-05-04 23:52 | 43.28932 | -54.16060 | 39097 ft | 600 kts | 76° |
| 2026-05-04 23:53 | 43.31037 | -54.05015 | 39097 ft | 599 kts | 76° |
| 2026-05-04 23:53 | 43.33122 | -53.94016 | 39095 ft | 595 kts | 76° |
| 2026-05-04 23:54 | 43.35201 | -53.82987 | 39100 ft | 595 kts | 76° |
| 2026-05-04 23:54 | 43.37262 | -53.71983 | 39108 ft | 596 kts | 77° |
| 2026-05-04 23:55 | 43.39313 | -53.60967 | 39096 ft | 596 kts | 76° |
| 2026-05-04 23:56 | 43.42385 | -53.44348 | 39099 ft | 600 kts | 76° |
| 2026-05-04 23:56 | 43.44436 | -53.33175 | 39098 ft | 600 kts | 76° |
| 2026-05-04 23:57 | 43.46458 | -53.22096 | 39097 ft | 598 kts | 77° |
| 2026-05-04 23:57 | 43.48476 | -53.10965 | 39105 ft | 596 kts | 77° |
| 2026-05-04 23:58 | 43.50468 | -52.99910 | 39104 ft | 598 kts | 76° |
| 2026-05-04 23:58 | 43.52459 | -52.88799 | 39107 ft | 601 kts | 77° |
| 2026-05-04 23:59 | 43.54455 | -52.77589 | 39096 ft | 598 kts | 77° |
| 2026-05-04 23:59 | 43.56416 | -52.66512 | 39111 ft | 597 kts | 77° |
| 2026-05-05 00:00 | 43.58375 | -52.55378 | 39109 ft | 598 kts | 77° |
| 2026-05-05 00:00 | 43.60329 | -52.44201 | 39067 ft | 597 kts | 77° |
| 2026-05-05 00:01 | 43.62259 | -52.33089 | 39107 ft | 599 kts | 77° |
| 2026-05-05 00:01 | 43.64203 | -52.21829 | 39102 ft | 601 kts | 77° |
| 2026-05-05 00:02 | 43.66124 | -52.10633 | 39108 ft | 601 kts | 77° |
| 2026-05-05 00:02 | 43.68041 | -51.99387 | 39104 ft | 598 kts | 77° |
| 2026-05-05 00:03 | 43.69925 | -51.88269 | 39108 ft | 595 kts | 77° |
| 2026-05-05 00:03 | 43.71796 | -51.77151 | 39096 ft | 596 kts | 77° |
| 2026-05-05 00:04 | 43.73675 | -51.65911 | 39120 ft | 599 kts | 77° |
| 2026-05-05 00:04 | 43.75528 | -51.54763 | 39108 ft | 595 kts | 77° |
| 2026-05-05 00:05 | 43.77374 | -51.43579 | 39109 ft | 594 kts | 77° |
| 2026-05-05 00:05 | 43.79195 | -51.32476 | 39115 ft | 594 kts | 77° |
| 2026-05-05 00:06 | 43.81017 | -51.21294 | 39110 ft | 593 kts | 77° |
| 2026-05-05 00:06 | 43.82815 | -51.10183 | 39119 ft | 593 kts | 77° |
| 2026-05-05 00:07 | 43.84608 | -50.99032 | 39113 ft | 596 kts | 77° |
| 2026-05-05 00:07 | 43.86404 | -50.87787 | 39118 ft | 597 kts | 77° |
| 2026-05-05 00:08 | 43.88184 | -50.76573 | 39118 ft | 597 kts | 78° |
| 2026-05-05 00:08 | 43.89952 | -50.65351 | 39121 ft | 597 kts | 78° |
| 2026-05-05 00:09 | 43.91716 | -50.54082 | 39083 ft | 597 kts | 78° |
| 2026-05-05 00:09 | 43.93465 | -50.42830 | 39131 ft | 600 kts | 77° |
| 2026-05-05 00:10 | 43.95212 | -50.31513 | 39128 ft | 601 kts | 78° |
| 2026-05-05 00:10 | 43.96954 | -50.20145 | 39127 ft | 600 kts | 78° |
| 2026-05-05 00:11 | 43.98673 | -50.08849 | 39130 ft | 600 kts | 78° |
| 2026-05-05 00:11 | 44.00739 | -49.97603 | 39146 ft | 597 kts | 68° |
| 2026-05-05 00:12 | 44.03382 | -49.86726 | 39134 ft | 594 kts | 69° |
| 2026-05-05 00:12 | 44.06043 | -49.75895 | 39134 ft | 595 kts | 69° |
| 2026-05-05 00:13 | 44.08765 | -49.64941 | 39131 ft | 596 kts | 68° |
| 2026-05-05 00:13 | 44.11002 | -49.55929 | 39126 ft | 594 kts | 69° |
| 2026-05-05 00:14 | 44.13690 | -49.45036 | 39140 ft | 591 kts | 69° |
| 2026-05-05 00:14 | 44.16345 | -49.34219 | 39128 ft | 591 kts | 69° |
| 2026-05-05 00:15 | 44.18983 | -49.23415 | 39129 ft | 590 kts | 70° |
| 2026-05-05 00:15 | 44.21616 | -49.12578 | 39134 ft | 587 kts | 70° |
| 2026-05-05 00:16 | 44.24216 | -49.01824 | 39139 ft | 587 kts | 70° |
| 2026-05-05 00:16 | 44.26825 | -48.90985 | 39140 ft | 587 kts | 70° |
| 2026-05-05 00:17 | 44.29397 | -48.80249 | 39137 ft | 583 kts | 70° |
| 2026-05-05 00:17 | 44.31944 | -48.69564 | 39137 ft | 582 kts | 70° |
| 2026-05-05 00:18 | 44.34498 | -48.58796 | 39134 ft | 582 kts | 71° |
| 2026-05-05 00:18 | 44.37035 | -48.48054 | 39138 ft | 581 kts | 71° |
| 2026-05-05 00:19 | 44.39536 | -48.37406 | 39136 ft | 579 kts | 71° |
| 2026-05-05 00:19 | 44.42049 | -48.26657 | 39136 ft | 579 kts | 71° |
| 2026-05-05 00:20 | 44.44536 | -48.15969 | 39106 ft | 579 kts | 71° |
| 2026-05-05 00:20 | 44.47009 | -48.05292 | 39134 ft | 580 kts | 71° |
| 2026-05-05 00:21 | 44.49499 | -47.94486 | 39136 ft | 581 kts | 71° |
| 2026-05-05 00:21 | 44.51962 | -47.83742 | 39138 ft | 581 kts | 71° |
| 2026-05-05 00:22 | 44.54420 | -47.72970 | 39140 ft | 580 kts | 72° |
| 2026-05-05 00:22 | 44.56870 | -47.62178 | 39140 ft | 578 kts | 72° |
| 2026-05-05 00:23 | 44.59289 | -47.51470 | 39140 ft | 578 kts | 72° |
| 2026-05-05 00:23 | 44.61713 | -47.40687 | 39146 ft | 578 kts | 72° |
| 2026-05-05 00:24 | 44.64105 | -47.29994 | 39098 ft | 574 kts | 72° |
| 2026-05-05 00:24 | 44.66497 | -47.19242 | 39138 ft | 578 kts | 72° |
| 2026-05-05 00:25 | 44.68881 | -47.08473 | 39142 ft | 581 kts | 72° |
| 2026-05-05 00:25 | 44.71279 | -46.97588 | 39143 ft | 580 kts | 72° |
| 2026-05-05 00:26 | 44.73643 | -46.86800 | 39145 ft | 580 kts | 72° |
| 2026-05-05 00:26 | 44.76015 | -46.75921 | 39143 ft | 581 kts | 72° |
| 2026-05-05 00:27 | 44.78369 | -46.65071 | 39142 ft | 580 kts | 73° |
| 2026-05-05 00:27 | 44.80712 | -46.54209 | 39146 ft | 577 kts | 73° |
| 2026-05-05 00:28 | 44.83023 | -46.43443 | 39143 ft | 577 kts | 73° |
| 2026-05-05 00:28 | 44.85345 | -46.32569 | 39143 ft | 580 kts | 72° |
| 2026-05-05 00:29 | 44.87657 | -46.21689 | 39144 ft | 580 kts | 73° |
| 2026-05-05 00:29 | 44.89952 | -46.10827 | 39147 ft | 578 kts | 73° |
| 2026-05-05 00:30 | 44.92240 | -45.99937 | 39146 ft | 578 kts | 73° |
| 2026-05-05 00:30 | 44.94508 | -45.89092 | 39147 ft | 578 kts | 73° |
| 2026-05-05 00:31 | 44.96769 | -45.78218 | 39143 ft | 574 kts | 73° |
| 2026-05-05 00:31 | 44.98994 | -45.67462 | 39143 ft | 573 kts | 73° |
| 2026-05-05 00:32 | 45.01223 | -45.56628 | 39143 ft | 573 kts | 73° |
| 2026-05-05 00:32 | 45.03439 | -45.45802 | 39145 ft | 572 kts | 73° |
| 2026-05-05 00:33 | 45.05634 | -45.35017 | 39147 ft | 571 kts | 73° |
| 2026-05-05 00:33 | 45.07826 | -45.24188 | 39142 ft | 571 kts | 73° |
| 2026-05-05 00:34 | 45.09994 | -45.13421 | 39144 ft | 571 kts | 74° |
| 2026-05-05 00:34 | 45.12145 | -45.02682 | 39145 ft | 566 kts | 74° |
| 2026-05-05 00:35 | 45.14287 | -44.91929 | 39147 ft | 564 kts | 74° |
| 2026-05-05 00:35 | 45.16399 | -44.81264 | 39143 ft | 565 kts | 75° |
| 2026-05-05 00:36 | 45.18518 | -44.70511 | 39141 ft | 563 kts | 75° |
| 2026-05-05 00:36 | 45.20600 | -44.59885 | 39119 ft | 560 kts | 74° |
| 2026-05-05 00:37 | 45.22676 | -44.49226 | 39140 ft | 563 kts | 75° |
| 2026-05-05 00:37 | 45.24757 | -44.38487 | 39140 ft | 564 kts | 75° |
| 2026-05-05 00:38 | 45.26816 | -44.27807 | 39137 ft | 560 kts | 75° |
| 2026-05-05 00:38 | 45.28861 | -44.17137 | 39138 ft | 558 kts | 75° |
| 2026-05-05 00:39 | 45.30884 | -44.06520 | 39139 ft | 558 kts | 75° |
| 2026-05-05 00:39 | 45.32894 | -43.95912 | 39128 ft | 558 kts | 75° |
| 2026-05-05 00:40 | 45.34902 | -43.85259 | 39134 ft | 555 kts | 75° |
| 2026-05-05 00:40 | 45.36879 | -43.74708 | 39132 ft | 554 kts | 76° |
| 2026-05-05 00:41 | 45.38859 | -43.64079 | 39133 ft | 556 kts | 75° |
| 2026-05-05 00:41 | 45.40827 | -43.53456 | 39129 ft | 556 kts | 75° |
| 2026-05-05 00:42 | 45.42772 | -43.42900 | 39133 ft | 551 kts | 76° |
| 2026-05-05 00:42 | 45.44699 | -43.32384 | 39132 ft | 551 kts | 76° |
| 2026-05-05 00:43 | 45.46629 | -43.21785 | 39129 ft | 551 kts | 76° |
| 2026-05-05 00:43 | 45.48535 | -43.11260 | 39127 ft | 551 kts | 76° |
| 2026-05-05 00:44 | 45.50448 | -43.00635 | 39128 ft | 551 kts | 76° |
| 2026-05-05 00:44 | 45.52338 | -42.90074 | 39127 ft | 551 kts | 76° |
| 2026-05-05 00:45 | 45.54222 | -42.79486 | 39085 ft | 551 kts | 76° |
| 2026-05-05 00:45 | 45.56104 | -42.68850 | 39123 ft | 550 kts | 76° |
| 2026-05-05 00:46 | 45.57951 | -42.58348 | 39122 ft | 549 kts | 76° |
| 2026-05-05 00:46 | 45.59803 | -42.47759 | 39124 ft | 550 kts | 76° |
| 2026-05-05 00:47 | 45.61652 | -42.37115 | 39119 ft | 549 kts | 76° |
| 2026-05-05 00:47 | 45.63470 | -42.26594 | 39122 ft | 545 kts | 76° |
| 2026-05-05 00:48 | 45.65281 | -42.16047 | 39124 ft | 544 kts | 76° |
| 2026-05-05 00:48 | 45.67072 | -42.05556 | 39116 ft | 545 kts | 76° |
| 2026-05-05 00:49 | 45.68852 | -41.95071 | 39122 ft | 544 kts | 77° |
| 2026-05-05 00:49 | 45.70620 | -41.84584 | 39094 ft | 538 kts | 76° |
| 2026-05-05 00:50 | 45.72361 | -41.74200 | 39117 ft | 538 kts | 77° |
| 2026-05-05 00:50 | 45.74105 | -41.63732 | 39129 ft | 539 kts | 77° |
| 2026-05-05 00:51 | 45.75826 | -41.53339 | 39128 ft | 537 kts | 77° |
| 2026-05-05 00:51 | 45.77535 | -41.42962 | 39135 ft | 533 kts | 77° |
| 2026-05-05 00:52 | 45.79228 | -41.32611 | 39134 ft | 532 kts | 77° |
| 2026-05-05 00:52 | 45.80901 | -41.22321 | 39140 ft | 533 kts | 77° |
| 2026-05-05 00:53 | 45.82568 | -41.12005 | 39140 ft | 530 kts | 78° |
| 2026-05-05 00:53 | 45.84221 | -41.01721 | 39151 ft | 525 kts | 78° |
| 2026-05-05 00:54 | 45.85845 | -40.91544 | 39152 ft | 525 kts | 78° |
| 2026-05-05 00:54 | 45.87475 | -40.81263 | 39167 ft | 527 kts | 77° |
| 2026-05-05 00:55 | 45.89085 | -40.71053 | 39160 ft | 524 kts | 78° |
| 2026-05-05 00:55 | 45.90672 | -40.60926 | 39175 ft | 520 kts | 78° |
| 2026-05-05 00:56 | 45.92256 | -40.50755 | 39177 ft | 520 kts | 78° |
| 2026-05-05 00:56 | 45.93817 | -40.40660 | 39164 ft | 520 kts | 78° |
| 2026-05-05 00:57 | 45.95383 | -40.30482 | 39165 ft | 518 kts | 78° |
| 2026-05-05 00:57 | 45.96913 | -40.20468 | 39168 ft | 515 kts | 79° |
| 2026-05-05 00:58 | 45.98445 | -40.10378 | 39184 ft | 515 kts | 79° |
| 2026-05-05 00:58 | 46.00055 | -40.00379 | 39191 ft | 515 kts | 72° |
| 2026-05-05 00:59 | 46.02341 | -39.90642 | 39194 ft | 514 kts | 71° |
| 2026-05-05 00:59 | 46.04764 | -39.80948 | 39198 ft | 512 kts | 70° |
| 2026-05-05 01:00 | 46.07188 | -39.71332 | 39201 ft | 512 kts | 70° |
| 2026-05-05 01:00 | 46.09597 | -39.61693 | 39212 ft | 512 kts | 70° |
| 2026-05-05 01:01 | 46.11982 | -39.52074 | 39221 ft | 511 kts | 71° |
| 2026-05-05 01:01 | 46.14361 | -39.42422 | 39224 ft | 510 kts | 71° |
| 2026-05-05 01:02 | 46.16734 | -39.32754 | 39217 ft | 510 kts | 71° |
| 2026-05-05 01:02 | 46.19091 | -39.23112 | 39225 ft | 514 kts | 71° |
| 2026-05-05 01:03 | 46.21072 | -39.14973 | 39234 ft | 516 kts | 71° |
| 2026-05-05 01:03 | 46.23439 | -39.05217 | 39231 ft | 515 kts | 71° |
| 2026-05-05 01:04 | 46.25806 | -38.95415 | 39244 ft | 515 kts | 71° |
| 2026-05-05 01:04 | 46.29327 | -38.80753 | 39248 ft | 515 kts | 72° |
| 2026-05-05 01:05 | 46.31653 | -38.71014 | 39245 ft | 514 kts | 72° |
| 2026-05-05 01:05 | 46.33982 | -38.61217 | 39244 ft | 514 kts | 72° |
| 2026-05-05 01:06 | 46.36293 | -38.51456 | 39251 ft | 514 kts | 72° |
| 2026-05-05 01:06 | 46.38608 | -38.41634 | 39250 ft | 513 kts | 72° |
| 2026-05-05 01:07 | 46.40897 | -38.31876 | 39271 ft | 512 kts | 72° |
| 2026-05-05 01:07 | 46.43169 | -38.22148 | 39272 ft | 511 kts | 72° |
| 2026-05-05 01:08 | 46.45446 | -38.12355 | 39260 ft | 511 kts | 72° |
| 2026-05-05 01:08 | 46.47701 | -38.02611 | 39267 ft | 511 kts | 72° |
| 2026-05-05 01:09 | 46.49950 | -37.92854 | 39271 ft | 510 kts | 72° |
| 2026-05-05 01:09 | 46.52197 | -37.83056 | 39272 ft | 510 kts | 72° |
| 2026-05-05 01:10 | 46.54433 | -37.73263 | 39289 ft | 510 kts | 72° |
| 2026-05-05 01:10 | 46.56648 | -37.63521 | 39293 ft | 507 kts | 72° |
| 2026-05-05 01:11 | 46.58846 | -37.53808 | 39280 ft | 506 kts | 72° |
| 2026-05-05 01:11 | 46.61043 | -37.44052 | 39299 ft | 507 kts | 73° |
| 2026-05-05 01:12 | 46.63224 | -37.34323 | 39288 ft | 506 kts | 72° |
| 2026-05-05 01:12 | 46.65397 | -37.24586 | 39304 ft | 504 kts | 72° |
| 2026-05-05 01:13 | 46.67547 | -37.14909 | 39310 ft | 503 kts | 73° |
| 2026-05-05 01:13 | 46.69696 | -37.05192 | 39300 ft | 503 kts | 73° |
| 2026-05-05 01:14 | 46.71821 | -36.95535 | 39307 ft | 503 kts | 72° |
| 2026-05-05 01:14 | 46.73957 | -36.85790 | 39315 ft | 502 kts | 72° |
| 2026-05-05 01:15 | 46.76068 | -36.76107 | 39310 ft | 502 kts | 72° |
| 2026-05-05 01:15 | 46.78167 | -36.66439 | 39317 ft | 502 kts | 72° |
| 2026-05-05 01:16 | 46.80271 | -36.56698 | 39320 ft | 502 kts | 72° |
| 2026-05-05 01:16 | 46.82370 | -36.46935 | 39320 ft | 502 kts | 72° |
| 2026-05-05 01:17 | 46.84445 | -36.37246 | 39325 ft | 502 kts | 72° |
| 2026-05-05 01:17 | 46.86513 | -36.27537 | 39335 ft | 502 kts | 72° |
| 2026-05-05 01:18 | 46.88585 | -36.17763 | 39323 ft | 502 kts | 72° |
| 2026-05-05 01:18 | 46.90638 | -36.08031 | 39342 ft | 503 kts | 72° |
| 2026-05-05 01:19 | 46.92692 | -35.98249 | 39336 ft | 503 kts | 72° |
| 2026-05-05 01:19 | 46.94746 | -35.88423 | 39338 ft | 503 kts | 72° |
| 2026-05-05 01:20 | 46.96779 | -35.78643 | 39340 ft | 503 kts | 72° |
| 2026-05-05 01:20 | 46.98804 | -35.68860 | 39343 ft | 504 kts | 72° |
| 2026-05-05 01:21 | 47.00825 | -35.59046 | 39344 ft | 504 kts | 72° |
| 2026-05-05 01:21 | 47.02844 | -35.49193 | 39349 ft | 504 kts | 72° |
| 2026-05-05 01:22 | 47.04846 | -35.39376 | 39353 ft | 504 kts | 72° |
| 2026-05-05 01:22 | 47.06853 | -35.29484 | 39354 ft | 504 kts | 72° |
| 2026-05-05 01:23 | 47.08836 | -35.19664 | 39356 ft | 504 kts | 72° |
| 2026-05-05 01:23 | 47.10826 | -35.09755 | 39351 ft | 504 kts | 72° |
| 2026-05-05 01:24 | 47.12800 | -34.99879 | 39369 ft | 504 kts | 71° |
| 2026-05-05 01:24 | 47.14754 | -34.90053 | 39359 ft | 504 kts | 71° |
| 2026-05-05 01:25 | 47.16722 | -34.80107 | 39366 ft | 505 kts | 71° |
| 2026-05-05 01:25 | 47.18668 | -34.70226 | 39364 ft | 505 kts | 71° |
| 2026-05-05 01:26 | 47.20605 | -34.60334 | 39371 ft | 504 kts | 71° |
| 2026-05-05 01:26 | 47.22543 | -34.50386 | 39369 ft | 504 kts | 71° |
| 2026-05-05 01:27 | 47.24460 | -34.40497 | 39382 ft | 504 kts | 71° |
| 2026-05-05 01:27 | 47.26372 | -34.30581 | 39381 ft | 504 kts | 71° |
| 2026-05-05 01:28 | 47.28270 | -34.20688 | 39384 ft | 503 kts | 71° |
| 2026-05-05 01:28 | 47.30162 | -34.10768 | 39382 ft | 501 kts | 71° |
| 2026-05-05 01:29 | 47.32028 | -34.00941 | 39382 ft | 500 kts | 71° |
| 2026-05-05 01:29 | 47.33901 | -33.91028 | 39387 ft | 501 kts | 71° |
| 2026-05-05 01:30 | 47.35753 | -33.81169 | 39389 ft | 500 kts | 71° |
| 2026-05-05 01:30 | 47.37599 | -33.71283 | 39392 ft | 498 kts | 71° |
| 2026-05-05 01:31 | 47.39431 | -33.61433 | 39397 ft | 498 kts | 71° |
| 2026-05-05 01:31 | 47.41249 | -33.51601 | 39394 ft | 498 kts | 71° |
| 2026-05-05 01:32 | 47.43070 | -33.41697 | 39389 ft | 498 kts | 70° |
| 2026-05-05 01:32 | 47.44867 | -33.31865 | 39390 ft | 495 kts | 70° |
| 2026-05-05 01:33 | 47.46657 | -33.22031 | 39400 ft | 494 kts | 70° |
| 2026-05-05 01:33 | 47.48424 | -33.12271 | 39406 ft | 494 kts | 71° |
| 2026-05-05 01:34 | 47.50198 | -33.02420 | 39399 ft | 494 kts | 70° |
| 2026-05-05 01:34 | 47.51953 | -32.92620 | 39404 ft | 494 kts | 70° |
| 2026-05-05 01:35 | 47.53700 | -32.82806 | 39408 ft | 494 kts | 70° |
| 2026-05-05 01:35 | 47.55441 | -32.72976 | 39411 ft | 494 kts | 70° |
| 2026-05-05 01:36 | 47.57185 | -32.63075 | 39428 ft | 495 kts | 70° |
| 2026-05-05 01:36 | 47.58910 | -32.53231 | 39418 ft | 497 kts | 70° |
| 2026-05-05 01:37 | 47.60642 | -32.43285 | 39417 ft | 497 kts | 70° |
| 2026-05-05 01:37 | 47.62354 | -32.33397 | 39424 ft | 497 kts | 70° |
| 2026-05-05 01:38 | 47.64070 | -32.23428 | 39439 ft | 497 kts | 70° |
| 2026-05-05 01:38 | 47.65767 | -32.13514 | 39424 ft | 497 kts | 70° |
| 2026-05-05 01:39 | 47.67453 | -32.03612 | 39428 ft | 497 kts | 70° |
| 2026-05-05 01:39 | 47.69143 | -31.93631 | 39427 ft | 497 kts | 70° |
| 2026-05-05 01:40 | 47.70815 | -31.83699 | 39453 ft | 498 kts | 70° |
| 2026-05-05 01:40 | 47.72487 | -31.73694 | 39433 ft | 495 kts | 70° |
| 2026-05-05 01:41 | 47.74132 | -31.63800 | 39435 ft | 492 kts | 70° |
| 2026-05-05 01:41 | 47.75756 | -31.53983 | 39436 ft | 490 kts | 70° |
| 2026-05-05 01:42 | 47.77381 | -31.44107 | 39436 ft | 491 kts | 70° |
| 2026-05-05 01:42 | 47.78991 | -31.34272 | 39438 ft | 491 kts | 70° |
| 2026-05-05 01:43 | 47.80590 | -31.24432 | 39438 ft | 491 kts | 70° |
| 2026-05-05 01:43 | 47.82190 | -31.14532 | 39438 ft | 491 kts | 70° |
| 2026-05-05 01:44 | 47.83772 | -31.04681 | 39438 ft | 491 kts | 70° |
| 2026-05-05 01:44 | 47.85353 | -30.94768 | 39439 ft | 489 kts | 70° |
| 2026-05-05 01:45 | 47.86906 | -30.84978 | 39444 ft | 487 kts | 70° |
| 2026-05-05 01:45 | 47.88454 | -30.75175 | 39444 ft | 487 kts | 70° |
| 2026-05-05 01:46 | 47.89994 | -30.65362 | 39441 ft | 487 kts | 70° |
| 2026-05-05 01:46 | 47.91534 | -30.55487 | 39449 ft | 488 kts | 70° |
| 2026-05-05 01:47 | 47.93054 | -30.45673 | 39442 ft | 488 kts | 70° |
| 2026-05-05 01:47 | 47.94579 | -30.35770 | 39439 ft | 488 kts | 70° |
| 2026-05-05 01:48 | 47.96088 | -30.25910 | 39445 ft | 488 kts | 70° |
| 2026-05-05 01:48 | 47.97592 | -30.16020 | 39449 ft | 488 kts | 70° |
| 2026-05-05 01:49 | 47.99086 | -30.06144 | 39449 ft | 490 kts | 70° |
| 2026-05-05 01:49 | 48.00944 | -29.96480 | 39450 ft | 483 kts | 63° |
| 2026-05-05 01:50 | 48.03228 | -29.87087 | 39449 ft | 482 kts | 62° |
| 2026-05-05 01:50 | 48.05596 | -29.77686 | 39465 ft | 482 kts | 62° |
| 2026-05-05 01:51 | 48.07952 | -29.68331 | 39451 ft | 482 kts | 62° |
| 2026-05-05 01:51 | 48.10297 | -29.58928 | 39452 ft | 482 kts | 63° |
| 2026-05-05 01:52 | 48.12625 | -29.49529 | 39453 ft | 483 kts | 63° |
| 2026-05-05 01:52 | 48.14566 | -29.41660 | 39478 ft | 483 kts | 63° |
| 2026-05-05 01:53 | 48.16884 | -29.32226 | 39452 ft | 484 kts | 63° |
| 2026-05-05 01:53 | 48.19214 | -29.22709 | 39452 ft | 485 kts | 63° |
| 2026-05-05 01:54 | 48.21515 | -29.13261 | 39452 ft | 485 kts | 63° |
| 2026-05-05 01:54 | 48.23830 | -29.03718 | 39455 ft | 485 kts | 63° |
| 2026-05-05 01:55 | 48.26122 | -28.94230 | 39453 ft | 486 kts | 64° |
| 2026-05-05 01:55 | 48.28417 | -28.84690 | 39451 ft | 487 kts | 64° |
| 2026-05-05 01:56 | 48.30720 | -28.75068 | 39453 ft | 487 kts | 64° |
| 2026-05-05 01:56 | 48.32998 | -28.65513 | 39454 ft | 487 kts | 64° |
| 2026-05-05 01:57 | 48.35286 | -28.55879 | 39457 ft | 489 kts | 64° |
| 2026-05-05 01:57 | 48.37558 | -28.46268 | 39459 ft | 490 kts | 64° |
| 2026-05-05 01:58 | 48.39839 | -28.36570 | 39449 ft | 490 kts | 64° |
| 2026-05-05 01:58 | 48.42097 | -28.26924 | 39450 ft | 490 kts | 64° |
| 2026-05-05 01:59 | 48.44368 | -28.17185 | 39454 ft | 492 kts | 65° |
| 2026-05-05 01:59 | 48.46628 | -28.07452 | 39451 ft | 493 kts | 65° |
| 2026-05-05 02:00 | 48.48873 | -27.97737 | 39452 ft | 493 kts | 65° |
| 2026-05-05 02:00 | 48.51112 | -27.88003 | 39452 ft | 493 kts | 65° |
| 2026-05-05 02:01 | 48.53358 | -27.78197 | 39447 ft | 493 kts | 65° |
| 2026-05-05 02:01 | 48.55586 | -27.68423 | 39449 ft | 493 kts | 65° |
| 2026-05-05 02:02 | 48.57805 | -27.58641 | 39449 ft | 494 kts | 66° |
| 2026-05-05 02:02 | 48.60017 | -27.48847 | 39449 ft | 494 kts | 66° |
| 2026-05-05 02:03 | 48.62233 | -27.38988 | 39449 ft | 494 kts | 66° |
| 2026-05-05 02:03 | 48.64424 | -27.29194 | 39449 ft | 494 kts | 66° |
| 2026-05-05 02:04 | 48.66626 | -27.19309 | 39449 ft | 494 kts | 66° |
| 2026-05-05 02:04 | 48.68804 | -27.09485 | 39449 ft | 494 kts | 66° |
| 2026-05-05 02:05 | 48.70973 | -26.99652 | 39447 ft | 494 kts | 66° |
| 2026-05-05 02:05 | 48.73148 | -26.89747 | 39444 ft | 494 kts | 66° |
| 2026-05-05 02:06 | 48.75302 | -26.79888 | 39443 ft | 494 kts | 66° |
| 2026-05-05 02:06 | 48.77457 | -26.69979 | 39441 ft | 494 kts | 67° |
| 2026-05-05 02:07 | 48.79598 | -26.60086 | 39443 ft | 494 kts | 67° |
| 2026-05-05 02:07 | 48.81743 | -26.50132 | 39441 ft | 495 kts | 67° |
| 2026-05-05 02:08 | 48.83864 | -26.40235 | 39445 ft | 495 kts | 67° |
| 2026-05-05 02:08 | 48.85979 | -26.30321 | 39445 ft | 495 kts | 67° |
| 2026-05-05 02:09 | 48.88097 | -26.20348 | 39448 ft | 495 kts | 68° |
| 2026-05-05 02:09 | 48.90193 | -26.10423 | 39439 ft | 495 kts | 68° |
| 2026-05-05 02:10 | 48.92283 | -26.00480 | 39443 ft | 495 kts | 68° |
| 2026-05-05 02:10 | 48.94374 | -25.90485 | 39446 ft | 495 kts | 68° |
| 2026-05-05 02:11 | 48.96455 | -25.80489 | 39444 ft | 495 kts | 69° |
| 2026-05-05 02:11 | 48.98515 | -25.70542 | 39442 ft | 494 kts | 69° |
| 2026-05-05 02:12 | 49.01598 | -25.55563 | 39438 ft | 494 kts | 69° |
| 2026-05-05 02:13 | 49.03652 | -25.45519 | 39453 ft | 495 kts | 69° |
| 2026-05-05 02:13 | 49.05682 | -25.35538 | 39439 ft | 494 kts | 69° |
| 2026-05-05 02:14 | 49.07713 | -25.25509 | 39435 ft | 494 kts | 69° |
| 2026-05-05 02:14 | 49.09724 | -25.15524 | 39436 ft | 494 kts | 69° |
| 2026-05-05 02:15 | 49.11728 | -25.05528 | 39451 ft | 494 kts | 70° |
| 2026-05-05 02:15 | 49.13735 | -24.95460 | 39433 ft | 493 kts | 70° |
| 2026-05-05 02:16 | 49.15720 | -24.85450 | 39433 ft | 493 kts | 70° |
| 2026-05-05 02:16 | 49.17697 | -24.75434 | 39429 ft | 493 kts | 70° |
| 2026-05-05 02:17 | 49.19671 | -24.65377 | 39428 ft | 493 kts | 70° |
| 2026-05-05 02:17 | 49.21626 | -24.55366 | 39428 ft | 492 kts | 70° |
| 2026-05-05 02:18 | 49.23579 | -24.45310 | 39424 ft | 492 kts | 70° |
| 2026-05-05 02:18 | 49.25511 | -24.35313 | 39422 ft | 492 kts | 70° |
| 2026-05-05 02:19 | 49.27438 | -24.25289 | 39427 ft | 492 kts | 71° |
| 2026-05-05 02:19 | 49.29354 | -24.15270 | 39421 ft | 491 kts | 71° |
| 2026-05-05 02:20 | 49.31270 | -24.05196 | 39419 ft | 490 kts | 71° |
| 2026-05-05 02:20 | 49.33162 | -23.95193 | 39420 ft | 490 kts | 71° |
| 2026-05-05 02:21 | 49.35064 | -23.85086 | 39426 ft | 491 kts | 71° |
| 2026-05-05 02:21 | 49.36939 | -23.75067 | 39421 ft | 490 kts | 71° |
| 2026-05-05 02:22 | 49.38802 | -23.65055 | 39420 ft | 489 kts | 71° |
| 2026-05-05 02:22 | 49.40663 | -23.55004 | 39420 ft | 489 kts | 71° |
| 2026-05-05 02:23 | 49.42521 | -23.44915 | 39417 ft | 489 kts | 71° |
| 2026-05-05 02:23 | 49.44362 | -23.34866 | 39416 ft | 489 kts | 72° |
| 2026-05-05 02:24 | 49.46203 | -23.24758 | 39420 ft | 489 kts | 72° |
| 2026-05-05 02:24 | 49.48020 | -23.14725 | 39420 ft | 490 kts | 72° |
| 2026-05-05 02:25 | 49.49833 | -23.04656 | 39418 ft | 490 kts | 72° |
| 2026-05-05 02:25 | 49.51651 | -22.94511 | 39416 ft | 489 kts | 72° |
| 2026-05-05 02:26 | 49.53443 | -22.84446 | 39411 ft | 488 kts | 72° |
| 2026-05-05 02:26 | 49.55235 | -22.74329 | 39411 ft | 488 kts | 72° |
| 2026-05-05 02:27 | 49.57008 | -22.64264 | 39411 ft | 488 kts | 72° |
| 2026-05-05 02:27 | 49.58773 | -22.54185 | 39425 ft | 489 kts | 72° |
| 2026-05-05 02:28 | 49.60539 | -22.44042 | 39409 ft | 488 kts | 73° |
| 2026-05-05 02:28 | 49.62283 | -22.33965 | 39409 ft | 488 kts | 73° |
| 2026-05-05 02:29 | 49.64026 | -22.23839 | 39404 ft | 488 kts | 73° |
| 2026-05-05 02:29 | 49.65756 | -22.13735 | 39402 ft | 487 kts | 73° |
| 2026-05-05 02:30 | 49.67478 | -22.03609 | 39401 ft | 486 kts | 73° |
| 2026-05-05 02:30 | 49.69178 | -21.93560 | 39398 ft | 485 kts | 73° |
| 2026-05-05 02:31 | 49.70879 | -21.83445 | 39399 ft | 485 kts | 73° |
| 2026-05-05 02:31 | 49.72561 | -21.73388 | 39395 ft | 486 kts | 73° |
| 2026-05-05 02:32 | 49.74246 | -21.63253 | 39397 ft | 485 kts | 73° |
| 2026-05-05 02:32 | 49.75919 | -21.53124 | 39390 ft | 485 kts | 73° |
| 2026-05-05 02:33 | 49.77570 | -21.43070 | 39387 ft | 485 kts | 73° |
| 2026-05-05 02:33 | 49.79220 | -21.32965 | 39387 ft | 485 kts | 73° |
| 2026-05-05 02:34 | 49.80871 | -21.22788 | 39384 ft | 485 kts | 74° |
| 2026-05-05 02:34 | 49.82494 | -21.12724 | 39382 ft | 484 kts | 74° |
| 2026-05-05 02:35 | 49.84119 | -21.02590 | 39377 ft | 484 kts | 74° |
| 2026-05-05 02:35 | 49.85725 | -20.92512 | 39373 ft | 484 kts | 74° |
| 2026-05-05 02:36 | 49.87334 | -20.82356 | 39382 ft | 484 kts | 74° |
| 2026-05-05 02:36 | 49.88920 | -20.72275 | 39375 ft | 483 kts | 74° |
| 2026-05-05 02:37 | 49.90507 | -20.62129 | 39375 ft | 483 kts | 74° |
| 2026-05-05 02:37 | 49.92075 | -20.52043 | 39365 ft | 483 kts | 74° |
| 2026-05-05 02:38 | 49.93639 | -20.41921 | 39368 ft | 483 kts | 75° |
| 2026-05-05 02:38 | 49.95191 | -20.31812 | 39360 ft | 482 kts | 75° |
| 2026-05-05 02:39 | 49.96483 | -20.23343 | 39360 ft | 482 kts | 75° |
| 2026-05-05 02:39 | 49.98014 | -20.13253 | 39360 ft | 482 kts | 75° |
| 2026-05-05 02:40 | 49.99715 | -20.01387 | 39353 ft | 483 kts | 80° |
| 2026-05-05 02:40 | 50.00166 | -19.92667 | 39351 ft | 484 kts | 85° |
| 2026-05-05 02:41 | 50.00425 | -19.82255 | 39347 ft | 484 kts | 86° |
| 2026-05-05 02:41 | 50.00604 | -19.71764 | 39351 ft | 484 kts | 87° |
| 2026-05-05 02:42 | 50.00778 | -19.61340 | 39347 ft | 484 kts | 87° |
| 2026-05-05 02:42 | 50.00957 | -19.50911 | 39345 ft | 484 kts | 87° |
| 2026-05-05 02:43 | 50.01134 | -19.40427 | 39338 ft | 484 kts | 87° |
| 2026-05-05 02:43 | 50.01301 | -19.30017 | 39335 ft | 484 kts | 87° |
| 2026-05-05 02:44 | 50.01459 | -19.19533 | 39338 ft | 484 kts | 87° |
| 2026-05-05 02:44 | 50.01606 | -19.09132 | 39334 ft | 484 kts | 87° |
| 2026-05-05 02:45 | 50.01744 | -18.98677 | 39335 ft | 484 kts | 87° |
| 2026-05-05 02:45 | 50.01873 | -18.88216 | 39325 ft | 484 kts | 87° |
| 2026-05-05 02:46 | 50.01992 | -18.77738 | 39327 ft | 483 kts | 87° |
| 2026-05-05 02:46 | 50.02102 | -18.67326 | 39330 ft | 483 kts | 87° |
| 2026-05-05 02:47 | 50.02203 | -18.56867 | 39332 ft | 483 kts | 88° |
| 2026-05-05 02:47 | 50.02294 | -18.46450 | 39320 ft | 483 kts | 88° |
| 2026-05-05 02:48 | 50.02376 | -18.35970 | 39321 ft | 483 kts | 88° |
| 2026-05-05 02:48 | 50.02448 | -18.25549 | 39320 ft | 483 kts | 88° |
| 2026-05-05 02:49 | 50.02511 | -18.15114 | 39315 ft | 483 kts | 88° |
| 2026-05-05 02:49 | 50.02565 | -18.04629 | 39325 ft | 484 kts | 88° |
| 2026-05-05 02:50 | 50.02610 | -17.94189 | 39307 ft | 484 kts | 88° |
| 2026-05-05 02:50 | 50.02645 | -17.83757 | 39310 ft | 484 kts | 88° |
| 2026-05-05 02:51 | 50.02670 | -17.73263 | 39301 ft | 484 kts | 88° |
| 2026-05-05 02:51 | 50.02686 | -17.62810 | 39300 ft | 484 kts | 88° |
| 2026-05-05 02:52 | 50.02693 | -17.52356 | 39292 ft | 484 kts | 88° |
| 2026-05-05 02:52 | 50.02690 | -17.41863 | 39292 ft | 483 kts | 88° |
| 2026-05-05 02:53 | 50.02679 | -17.31415 | 39295 ft | 483 kts | 88° |
| 2026-05-05 02:53 | 50.02657 | -17.20981 | 39282 ft | 483 kts | 88° |
| 2026-05-05 02:54 | 50.02627 | -17.10577 | 39298 ft | 483 kts | 89° |
| 2026-05-05 02:54 | 50.02586 | -17.00101 | 39284 ft | 482 kts | 88° |
| 2026-05-05 02:55 | 50.02537 | -16.89693 | 39288 ft | 482 kts | 88° |
| 2026-05-05 02:55 | 50.02478 | -16.79253 | 39284 ft | 482 kts | 88° |
| 2026-05-05 02:56 | 50.02410 | -16.68875 | 39283 ft | 482 kts | 89° |
| 2026-05-05 02:56 | 50.02333 | -16.58456 | 39276 ft | 482 kts | 89° |
| 2026-05-05 02:57 | 50.02246 | -16.48013 | 39272 ft | 482 kts | 89° |
| 2026-05-05 02:57 | 50.02150 | -16.37608 | 39266 ft | 482 kts | 89° |
| 2026-05-05 02:58 | 50.02045 | -16.27216 | 39269 ft | 482 kts | 89° |
| 2026-05-05 02:58 | 50.01931 | -16.16828 | 39265 ft | 482 kts | 89° |
| 2026-05-05 02:59 | 50.01807 | -16.06440 | 39260 ft | 481 kts | 89° |
| 2026-05-05 02:59 | 50.01674 | -15.96001 | 39255 ft | 481 kts | 89° |
| 2026-05-05 03:00 | 50.01532 | -15.85638 | 39252 ft | 481 kts | 90° |
| 2026-05-05 03:00 | 50.01381 | -15.75267 | 39254 ft | 481 kts | 89° |
| 2026-05-05 03:01 | 50.01220 | -15.64839 | 39253 ft | 481 kts | 89° |
| 2026-05-05 03:01 | 50.01050 | -15.54493 | 39243 ft | 480 kts | 90° |
| 2026-05-05 03:02 | 50.00871 | -15.44132 | 39238 ft | 480 kts | 90° |
| 2026-05-05 03:02 | 50.00683 | -15.33749 | 39240 ft | 480 kts | 89° |
| 2026-05-05 03:03 | 50.00485 | -15.23335 | 39235 ft | 480 kts | 90° |
| 2026-05-05 03:03 | 50.00279 | -15.12994 | 39236 ft | 480 kts | 90° |
| 2026-05-05 03:04 | 50.00062 | -15.02619 | 39232 ft | 479 kts | 90° |
| 2026-05-05 03:04 | 49.99973 | -14.92302 | 39230 ft | 478 kts | 88° |
| 2026-05-05 03:05 | 50.00027 | -14.81943 | 39225 ft | 478 kts | 88° |
| 2026-05-05 03:05 | 50.00083 | -14.71629 | 39225 ft | 478 kts | 88° |
| 2026-05-05 03:06 | 50.00110 | -14.61346 | 39223 ft | 477 kts | 88° |
| 2026-05-05 03:06 | 50.00116 | -14.50980 | 39213 ft | 477 kts | 88° |
| 2026-05-05 03:07 | 50.00111 | -14.40696 | 39217 ft | 477 kts | 88° |
| 2026-05-05 03:07 | 50.00098 | -14.30393 | 39210 ft | 477 kts | 88° |
| 2026-05-05 03:08 | 50.00076 | -14.20050 | 39213 ft | 477 kts | 88° |
| 2026-05-05 03:08 | 50.00045 | -14.09781 | 39202 ft | 476 kts | 88° |
| 2026-05-05 03:09 | 49.99780 | -13.99541 | 39203 ft | 477 kts | 97° |
| 2026-05-05 03:09 | 49.98574 | -13.89353 | 39205 ft | 478 kts | 100° |
| 2026-05-05 03:10 | 49.97174 | -13.79275 | 39204 ft | 479 kts | 101° |
| 2026-05-05 03:10 | 49.95733 | -13.69209 | 39200 ft | 478 kts | 101° |
| 2026-05-05 03:11 | 49.94296 | -13.59144 | 39205 ft | 477 kts | 101° |
| 2026-05-05 03:11 | 49.92857 | -13.49033 | 39199 ft | 478 kts | 101° |
| 2026-05-05 03:12 | 49.91424 | -13.39011 | 39200 ft | 478 kts | 101° |
| 2026-05-05 03:12 | 49.89980 | -13.28972 | 39191 ft | 478 kts | 101° |
| 2026-05-05 03:13 | 49.88522 | -13.18916 | 39186 ft | 477 kts | 101° |
| 2026-05-05 03:13 | 49.87066 | -13.08937 | 39185 ft | 475 kts | 101° |
| 2026-05-05 03:14 | 49.85597 | -12.98937 | 39195 ft | 475 kts | 101° |
| 2026-05-05 03:14 | 49.84116 | -12.88912 | 39178 ft | 475 kts | 101° |
| 2026-05-05 03:15 | 49.82637 | -12.78967 | 39191 ft | 475 kts | 101° |
| 2026-05-05 03:15 | 49.81151 | -12.69044 | 39176 ft | 475 kts | 101° |
| 2026-05-05 03:16 | 49.79646 | -12.59056 | 39177 ft | 474 kts | 101° |
| 2026-05-05 03:16 | 49.78147 | -12.49163 | 39170 ft | 474 kts | 101° |
| 2026-05-05 03:17 | 49.76625 | -12.39183 | 39170 ft | 474 kts | 101° |
| 2026-05-05 03:17 | 49.75107 | -12.29296 | 39169 ft | 474 kts | 101° |
| 2026-05-05 03:18 | 49.73572 | -12.19362 | 39173 ft | 474 kts | 101° |
| 2026-05-05 03:18 | 49.72040 | -12.09504 | 39164 ft | 473 kts | 101° |
| 2026-05-05 03:19 | 49.69726 | -11.94721 | 39158 ft | 473 kts | 101° |
| 2026-05-05 03:19 | 49.68162 | -11.84809 | 39156 ft | 473 kts | 101° |
| 2026-05-05 03:20 | 49.66603 | -11.74987 | 39160 ft | 473 kts | 101° |
| 2026-05-05 03:20 | 49.65024 | -11.65097 | 39153 ft | 473 kts | 101° |
| 2026-05-05 03:21 | 49.63448 | -11.55288 | 39145 ft | 472 kts | 101° |
| 2026-05-05 03:21 | 49.61865 | -11.45488 | 39147 ft | 473 kts | 101° |
| 2026-05-05 03:22 | 49.60259 | -11.35605 | 39137 ft | 474 kts | 101° |
| 2026-05-05 03:22 | 49.58652 | -11.25773 | 39142 ft | 475 kts | 101° |
| 2026-05-05 03:23 | 49.57024 | -11.15875 | 39132 ft | 475 kts | 101° |
| 2026-05-05 03:23 | 49.55398 | -11.06045 | 39132 ft | 475 kts | 101° |
| 2026-05-05 03:24 | 49.53762 | -10.96207 | 39124 ft | 475 kts | 101° |
| 2026-05-05 03:24 | 49.52107 | -10.86320 | 39124 ft | 475 kts | 102° |
| 2026-05-05 03:25 | 49.50456 | -10.76506 | 39125 ft | 475 kts | 102° |
| 2026-05-05 03:25 | 49.48783 | -10.66620 | 39121 ft | 475 kts | 102° |
| 2026-05-05 03:26 | 49.47112 | -10.56807 | 39114 ft | 475 kts | 102° |
| 2026-05-05 03:26 | 49.45434 | -10.46999 | 39113 ft | 476 kts | 102° |
| 2026-05-05 03:27 | 49.43739 | -10.37157 | 39108 ft | 476 kts | 102° |
| 2026-05-05 03:27 | 49.42045 | -10.27368 | 39107 ft | 475 kts | 102° |
| 2026-05-05 03:28 | 49.40622 | -10.19191 | 39100 ft | 475 kts | 102° |
| 2026-05-05 03:28 | 49.38916 | -10.09434 | 39099 ft | 475 kts | 102° |
| 2026-05-05 03:29 | 49.37189 | -9.99611 | 39094 ft | 475 kts | 103° |
| 2026-05-05 03:29 | 49.35469 | -9.89885 | 39089 ft | 475 kts | 102° |
| 2026-05-05 03:30 | 49.33728 | -9.80093 | 39090 ft | 475 kts | 103° |
| 2026-05-05 03:30 | 49.31991 | -9.70372 | 39086 ft | 474 kts | 103° |
| 2026-05-05 03:31 | 49.30233 | -9.60594 | 39079 ft | 474 kts | 103° |
| 2026-05-05 03:31 | 49.28470 | -9.50832 | 39075 ft | 475 kts | 103° |
| 2026-05-05 03:32 | 49.26710 | -9.41144 | 39075 ft | 474 kts | 103° |
| 2026-05-05 03:32 | 49.24936 | -9.31433 | 39074 ft | 474 kts | 103° |
| 2026-05-05 03:33 | 49.23156 | -9.21735 | 39066 ft | 474 kts | 103° |
| 2026-05-05 03:33 | 49.21358 | -9.11991 | 39063 ft | 475 kts | 103° |
| 2026-05-05 03:34 | 49.19561 | -9.02307 | 39065 ft | 474 kts | 103° |
| 2026-05-05 03:34 | 49.17745 | -8.92570 | 39063 ft | 474 kts | 103° |
| 2026-05-05 03:35 | 49.15934 | -8.82910 | 39059 ft | 474 kts | 103° |
| 2026-05-05 03:35 | 49.14113 | -8.73246 | 39059 ft | 474 kts | 104° |
| 2026-05-05 03:36 | 49.12287 | -8.63606 | 39058 ft | 474 kts | 103° |
| 2026-05-05 03:36 | 49.10446 | -8.53937 | 39056 ft | 474 kts | 104° |
| 2026-05-05 03:37 | 49.08604 | -8.44310 | 39051 ft | 474 kts | 104° |
| 2026-05-05 03:37 | 49.06740 | -8.34620 | 39051 ft | 474 kts | 104° |
| 2026-05-05 03:38 | 49.04883 | -8.25015 | 39045 ft | 473 kts | 104° |
| 2026-05-05 03:38 | 49.03021 | -8.15436 | 39045 ft | 474 kts | 104° |
| 2026-05-05 03:39 | 49.01136 | -8.05773 | 39044 ft | 474 kts | 104° |
| 2026-05-05 03:39 | 49.00141 | -7.95914 | 39043 ft | 470 kts | 90° |
| 2026-05-05 03:40 | 49.00098 | -7.86008 | 39040 ft | 470 kts | 88° |
| 2026-05-05 03:40 | 49.00231 | -7.76030 | 39039 ft | 471 kts | 87° |
| 2026-05-05 03:41 | 49.00367 | -7.66091 | 39034 ft | 471 kts | 88° |
| 2026-05-05 03:41 | 49.00469 | -7.56134 | 39030 ft | 471 kts | 89° |
| 2026-05-05 03:42 | 48.99552 | -7.46216 | 39035 ft | 474 kts | 105° |
| 2026-05-05 03:42 | 48.97501 | -7.36679 | 39028 ft | 477 kts | 108° |
| 2026-05-05 03:43 | 48.95218 | -7.27202 | 39029 ft | 477 kts | 109° |
| 2026-05-05 03:43 | 48.92903 | -7.17717 | 39026 ft | 477 kts | 109° |
| 2026-05-05 03:44 | 48.90618 | -7.08282 | 39026 ft | 477 kts | 108° |
| 2026-05-05 03:44 | 48.88327 | -6.98788 | 39024 ft | 477 kts | 110° |
| 2026-05-05 03:45 | 48.86044 | -6.89357 | 39012 ft | 477 kts | 109° |
| 2026-05-05 03:45 | 48.83739 | -6.79874 | 39024 ft | 476 kts | 110° |
| 2026-05-05 03:46 | 48.81443 | -6.70480 | 39024 ft | 476 kts | 109° |
| 2026-05-05 03:46 | 48.79136 | -6.61076 | 39006 ft | 476 kts | 110° |
| 2026-05-05 03:47 | 48.76822 | -6.51682 | 39023 ft | 476 kts | 110° |
| 2026-05-05 03:47 | 48.74492 | -6.42266 | 39016 ft | 476 kts | 110° |
| 2026-05-05 03:48 | 48.72170 | -6.32922 | 39006 ft | 475 kts | 110° |
| 2026-05-05 03:48 | 48.69827 | -6.23529 | 39016 ft | 475 kts | 110° |
| 2026-05-05 03:49 | 48.67494 | -6.14221 | 39007 ft | 475 kts | 110° |
| 2026-05-05 03:49 | 48.65141 | -6.04864 | 39001 ft | 475 kts | 110° |
| 2026-05-05 03:50 | 48.62786 | -5.95541 | 39000 ft | 475 kts | 110° |
| 2026-05-05 03:50 | 48.60414 | -5.86192 | 38998 ft | 475 kts | 110° |
| 2026-05-05 03:51 | 48.58050 | -5.76914 | 39002 ft | 475 kts | 111° |
| 2026-05-05 03:51 | 48.55662 | -5.67574 | 39003 ft | 475 kts | 110° |
| 2026-05-05 03:52 | 48.53284 | -5.58314 | 38995 ft | 475 kts | 111° |
| 2026-05-05 03:52 | 48.50882 | -5.48999 | 38993 ft | 475 kts | 111° |
| 2026-05-05 03:53 | 48.48485 | -5.39743 | 38993 ft | 475 kts | 111° |
| 2026-05-05 03:53 | 48.46080 | -5.30491 | 38990 ft | 475 kts | 111° |
| 2026-05-05 03:54 | 48.43668 | -5.21249 | 38995 ft | 475 kts | 111° |
| 2026-05-05 03:54 | 48.41236 | -5.11969 | 38993 ft | 475 kts | 111° |
| 2026-05-05 03:55 | 48.38811 | -5.02753 | 38990 ft | 474 kts | 112° |
| 2026-05-05 03:55 | 48.36380 | -4.93548 | 38985 ft | 474 kts | 112° |
| 2026-05-05 03:56 | 48.33945 | -4.84369 | 38985 ft | 474 kts | 112° |
| 2026-05-05 03:56 | 48.31484 | -4.75127 | 38992 ft | 474 kts | 112° |
| 2026-05-05 03:57 | 48.29034 | -4.65960 | 38993 ft | 475 kts | 112° |
| 2026-05-05 03:57 | 48.26578 | -4.56808 | 38993 ft | 475 kts | 112° |
| 2026-05-05 03:58 | 48.24093 | -4.47585 | 39000 ft | 475 kts | 112° |
| 2026-05-05 03:58 | 48.21617 | -4.38431 | 38994 ft | 475 kts | 112° |
| 2026-05-05 03:59 | 48.19123 | -4.29247 | 38999 ft | 475 kts | 112° |
| 2026-05-05 03:59 | 48.16634 | -4.20115 | 38969 ft | 475 kts | 112° |
| 2026-05-05 04:00 | 48.14116 | -4.10914 | 38968 ft | 475 kts | 113° |
| 2026-05-05 04:00 | 48.11607 | -4.01782 | 38976 ft | 476 kts | 113° |
| 2026-05-05 04:01 | 48.09072 | -3.92589 | 38972 ft | 477 kts | 113° |
| 2026-05-05 04:01 | 48.06544 | -3.83457 | 38967 ft | 477 kts | 113° |
| 2026-05-05 04:02 | 48.03991 | -3.74271 | 38970 ft | 476 kts | 113° |
| 2026-05-05 04:02 | 48.01456 | -3.65185 | 38976 ft | 475 kts | 113° |
| 2026-05-05 04:03 | 47.98917 | -3.56121 | 38965 ft | 475 kts | 113° |
| 2026-05-05 04:03 | 47.96354 | -3.47004 | 38967 ft | 475 kts | 113° |
| 2026-05-05 04:04 | 47.93800 | -3.37951 | 38959 ft | 475 kts | 114° |
| 2026-05-05 04:04 | 47.91221 | -3.28846 | 38963 ft | 474 kts | 114° |
| 2026-05-05 04:05 | 47.88662 | -3.19846 | 38955 ft | 473 kts | 114° |
| 2026-05-05 04:05 | 47.86094 | -3.10850 | 38963 ft | 473 kts | 114° |
| 2026-05-05 04:06 | 47.83501 | -3.01796 | 38957 ft | 473 kts | 114° |
| 2026-05-05 04:06 | 47.80936 | -2.92875 | 38956 ft | 473 kts | 114° |
| 2026-05-05 04:07 | 47.78332 | -2.83852 | 38944 ft | 473 kts | 114° |
| 2026-05-05 04:07 | 47.75744 | -2.74919 | 38948 ft | 473 kts | 114° |
| 2026-05-05 04:08 | 47.73136 | -2.65948 | 38942 ft | 474 kts | 114° |
| 2026-05-05 04:08 | 47.70589 | -2.57219 | 38949 ft | 474 kts | 114° |
| 2026-05-05 04:09 | 47.67677 | -2.48490 | 38929 ft | 472 kts | 122° |
| 2026-05-05 04:09 | 47.64181 | -2.40394 | 38930 ft | 472 kts | 124° |
| 2026-05-05 04:10 | 47.60563 | -2.32420 | 38944 ft | 472 kts | 125° |
| 2026-05-05 04:10 | 47.56936 | -2.24496 | 38934 ft | 472 kts | 125° |
| 2026-05-05 04:11 | 47.53312 | -2.16564 | 38929 ft | 472 kts | 125° |
| 2026-05-05 04:11 | 47.49670 | -2.08590 | 38925 ft | 472 kts | 125° |
| 2026-05-05 04:12 | 47.45976 | -2.00520 | 38920 ft | 472 kts | 125° |
| 2026-05-05 04:12 | 47.42371 | -1.92666 | 38915 ft | 472 kts | 125° |
| 2026-05-05 04:13 | 47.38699 | -1.84692 | 38918 ft | 472 kts | 126° |
| 2026-05-05 04:13 | 47.35018 | -1.76720 | 38913 ft | 473 kts | 126° |
| 2026-05-05 04:14 | 47.31380 | -1.68866 | 38912 ft | 474 kts | 126° |
| 2026-05-05 04:14 | 47.27645 | -1.60823 | 38909 ft | 474 kts | 126° |
| 2026-05-05 04:15 | 47.23998 | -1.52995 | 38911 ft | 474 kts | 126° |
| 2026-05-05 04:15 | 47.20937 | -1.46441 | 38910 ft | 473 kts | 126° |
| 2026-05-05 04:16 | 47.17214 | -1.38491 | 38909 ft | 473 kts | 126° |
| 2026-05-05 04:16 | 47.13480 | -1.30541 | 38907 ft | 474 kts | 126° |
| 2026-05-05 04:17 | 47.09768 | -1.22659 | 38893 ft | 474 kts | 127° |
| 2026-05-05 04:17 | 47.06020 | -1.14722 | 38898 ft | 474 kts | 127° |
| 2026-05-05 04:18 | 47.02269 | -1.06804 | 38900 ft | 473 kts | 127° |
| 2026-05-05 04:18 | 46.98529 | -0.98931 | 38900 ft | 473 kts | 127° |
| 2026-05-05 04:19 | 46.94753 | -0.91005 | 38901 ft | 473 kts | 127° |
| 2026-05-05 04:19 | 46.90984 | -0.83116 | 38900 ft | 473 kts | 127° |
| 2026-05-05 04:20 | 46.87201 | -0.75219 | 38897 ft | 473 kts | 127° |
| 2026-05-05 04:20 | 46.83434 | -0.67379 | 38898 ft | 473 kts | 127° |
| 2026-05-05 04:21 | 46.79637 | -0.59499 | 38900 ft | 473 kts | 127° |
| 2026-05-05 04:21 | 46.75858 | -0.51678 | 38897 ft | 472 kts | 127° |
| 2026-05-05 04:22 | 46.72084 | -0.43891 | 38897 ft | 472 kts | 127° |
| 2026-05-05 04:22 | 46.68269 | -0.36039 | 38898 ft | 472 kts | 127° |
| 2026-05-05 04:23 | 46.64483 | -0.28268 | 38897 ft | 472 kts | 128° |
| 2026-05-05 04:23 | 46.60967 | -0.20193 | 38899 ft | 474 kts | 123° |
| 2026-05-05 04:24 | 46.57624 | -0.11939 | 38897 ft | 474 kts | 122° |
| 2026-05-05 04:25 | 46.52626 | 0.00529 | 38876 ft | 475 kts | 123° |
| 2026-05-05 04:25 | 46.49301 | 0.08776 | 38889 ft | 475 kts | 123° |
| 2026-05-05 04:26 | 46.45980 | 0.16970 | 38888 ft | 474 kts | 123° |
| 2026-05-05 04:26 | 46.42615 | 0.25246 | 38889 ft | 474 kts | 123° |
| 2026-05-05 04:27 | 46.39266 | 0.33456 | 38897 ft | 474 kts | 123° |
| 2026-05-05 04:27 | 46.35921 | 0.41635 | 38886 ft | 474 kts | 124° |
| 2026-05-05 04:28 | 46.32541 | 0.49874 | 38903 ft | 474 kts | 124° |
| 2026-05-05 04:28 | 46.29187 | 0.58026 | 38900 ft | 474 kts | 124° |
| 2026-05-05 04:29 | 46.25808 | 0.66214 | 38896 ft | 474 kts | 124° |
| 2026-05-05 04:29 | 46.22436 | 0.74360 | 38900 ft | 474 kts | 124° |
| 2026-05-05 04:30 | 46.19044 | 0.82532 | 38893 ft | 473 kts | 124° |
| 2026-05-05 04:30 | 46.15668 | 0.90641 | 38901 ft | 473 kts | 124° |
| 2026-05-05 04:31 | 46.12279 | 0.98758 | 38905 ft | 473 kts | 124° |
| 2026-05-05 04:31 | 46.08865 | 1.06908 | 38905 ft | 473 kts | 124° |
| 2026-05-05 04:32 | 46.05470 | 1.14993 | 38906 ft | 473 kts | 124° |
| 2026-05-05 04:32 | 46.02065 | 1.23076 | 38907 ft | 472 kts | 125° |
| 2026-05-05 04:33 | 45.98664 | 1.31128 | 38907 ft | 472 kts | 125° |
| 2026-05-05 04:33 | 45.95970 | 1.39819 | 38907 ft | 479 kts | 108° |
| 2026-05-05 04:34 | 45.95266 | 1.49381 | 38907 ft | 488 kts | 92° |
| 2026-05-05 04:34 | 45.95557 | 1.59174 | 38881 ft | 491 kts | 90° |
| 2026-05-05 04:35 | 45.96007 | 1.68928 | 38899 ft | 491 kts | 89° |
| 2026-05-05 04:35 | 45.96429 | 1.78728 | 38890 ft | 491 kts | 90° |
| 2026-05-05 04:36 | 45.96806 | 1.88564 | 38888 ft | 491 kts | 90° |
| 2026-05-05 04:36 | 45.97157 | 1.98313 | 38875 ft | 491 kts | 90° |
| 2026-05-05 04:37 | 45.97501 | 2.08166 | 38881 ft | 493 kts | 90° |
| 2026-05-05 04:37 | 45.97836 | 2.17966 | 38881 ft | 493 kts | 90° |
| 2026-05-05 04:38 | 45.98167 | 2.27848 | 38875 ft | 493 kts | 91° |
| 2026-05-05 04:38 | 45.98488 | 2.37682 | 38859 ft | 493 kts | 91° |
| 2026-05-05 04:39 | 45.98800 | 2.47508 | 38875 ft | 493 kts | 91° |
| 2026-05-05 04:39 | 45.99105 | 2.57353 | 38863 ft | 493 kts | 91° |
| 2026-05-05 04:40 | 45.99402 | 2.67248 | 38871 ft | 493 kts | 91° |
| 2026-05-05 04:40 | 45.99685 | 2.77077 | 38851 ft | 493 kts | 92° |
| 2026-05-05 04:41 | 45.99006 | 2.86804 | 38873 ft | 485 kts | 104° |
| 2026-05-05 04:41 | 45.97644 | 2.96249 | 38874 ft | 484 kts | 106° |
| 2026-05-05 04:42 | 45.96135 | 3.05720 | 38883 ft | 484 kts | 107° |
| 2026-05-05 04:42 | 45.94625 | 3.15114 | 38884 ft | 484 kts | 107° |
| 2026-05-05 04:43 | 45.93118 | 3.24570 | 38881 ft | 484 kts | 107° |
| 2026-05-05 04:43 | 45.91624 | 3.33951 | 38883 ft | 484 kts | 107° |
| 2026-05-05 04:44 | 45.90114 | 3.43389 | 38880 ft | 484 kts | 107° |
| 2026-05-05 04:44 | 45.88603 | 3.52783 | 38881 ft | 484 kts | 107° |
| 2026-05-05 04:45 | 45.87119 | 3.62184 | 38883 ft | 484 kts | 106° |
| 2026-05-05 04:45 | 45.85663 | 3.71639 | 38890 ft | 484 kts | 106° |
| 2026-05-05 04:46 | 45.84210 | 3.81045 | 38888 ft | 484 kts | 106° |
| 2026-05-05 04:46 | 45.82736 | 3.90501 | 38889 ft | 484 kts | 106° |
| 2026-05-05 04:47 | 45.81257 | 3.99905 | 38889 ft | 485 kts | 106° |
| 2026-05-05 04:47 | 45.79768 | 4.09316 | 38889 ft | 485 kts | 106° |
| 2026-05-05 04:48 | 45.78265 | 4.18770 | 38891 ft | 485 kts | 107° |
| 2026-05-05 04:48 | 45.76761 | 4.28168 | 38892 ft | 485 kts | 107° |
| 2026-05-05 04:49 | 45.75246 | 4.37586 | 38890 ft | 486 kts | 107° |
| 2026-05-05 04:49 | 45.73716 | 4.47039 | 38899 ft | 486 kts | 107° |
| 2026-05-05 04:50 | 45.72188 | 4.56436 | 38894 ft | 486 kts | 107° |
| 2026-05-05 04:50 | 45.70651 | 4.65830 | 38896 ft | 486 kts | 107° |
| 2026-05-05 04:51 | 45.69100 | 4.75256 | 38898 ft | 487 kts | 107° |
| 2026-05-05 04:51 | 45.67546 | 4.84648 | 38899 ft | 487 kts | 107° |
| 2026-05-05 04:52 | 45.65977 | 4.94080 | 38906 ft | 487 kts | 107° |
| 2026-05-05 04:52 | 45.64396 | 5.03526 | 38901 ft | 487 kts | 107° |
| 2026-05-05 04:53 | 45.62820 | 5.12897 | 38900 ft | 487 kts | 108° |
| 2026-05-05 04:53 | 45.61231 | 5.22287 | 38901 ft | 488 kts | 108° |
| 2026-05-05 04:54 | 45.59634 | 5.31681 | 38903 ft | 488 kts | 108° |
| 2026-05-05 04:54 | 45.58011 | 5.41177 | 38899 ft | 488 kts | 108° |
| 2026-05-05 04:55 | 45.56398 | 5.50562 | 38901 ft | 488 kts | 108° |
| 2026-05-05 04:55 | 45.54706 | 5.59911 | 38904 ft | 488 kts | 109° |
| 2026-05-05 04:56 | 45.52912 | 5.69275 | 38916 ft | 488 kts | 109° |
| 2026-05-05 04:56 | 45.51116 | 5.78574 | 38917 ft | 488 kts | 109° |
| 2026-05-05 04:57 | 45.49317 | 5.87908 | 38904 ft | 488 kts | 109° |
| 2026-05-05 04:57 | 45.46884 | 5.96802 | 38917 ft | 479 kts | 125° |
| 2026-05-05 04:58 | 45.43056 | 6.04497 | 38919 ft | 473 kts | 133° |
| 2026-05-05 04:58 | 45.38936 | 6.11767 | 38925 ft | 472 kts | 134° |
| 2026-05-05 04:59 | 45.34776 | 6.18952 | 38934 ft | 471 kts | 134° |
| 2026-05-05 04:59 | 45.30611 | 6.26178 | 38938 ft | 473 kts | 134° |
| 2026-05-05 05:00 | 45.26472 | 6.33387 | 38939 ft | 473 kts | 134° |
| 2026-05-05 05:00 | 45.22304 | 6.40650 | 38949 ft | 472 kts | 134° |
| 2026-05-05 05:01 | 45.18155 | 6.47864 | 38964 ft | 472 kts | 134° |
| 2026-05-05 05:01 | 45.14000 | 6.55104 | 38963 ft | 473 kts | 132° |
| 2026-05-05 05:02 | 45.10698 | 6.63242 | 39003 ft | 486 kts | 117° |
| 2026-05-05 05:02 | 45.08377 | 6.72210 | 39001 ft | 489 kts | 113° |
| 2026-05-05 05:03 | 45.06241 | 6.81389 | 39012 ft | 489 kts | 112° |
| 2026-05-05 05:03 | 45.04123 | 6.90516 | 39003 ft | 489 kts | 113° |
| 2026-05-05 05:04 | 45.02329 | 6.98102 | 39019 ft | 490 kts | 113° |
| 2026-05-05 05:04 | 45.00150 | 7.07201 | 39024 ft | 491 kts | 113° |
| 2026-05-05 05:05 | 44.98358 | 7.16527 | 39026 ft | 497 kts | 101° |
| 2026-05-05 05:05 | 44.98026 | 7.26312 | 39018 ft | 501 kts | 94° |
| 2026-05-05 05:06 | 44.97406 | 7.36007 | 39004 ft | 493 kts | 108° |
| 2026-05-05 05:06 | 44.94765 | 7.44789 | 39003 ft | 479 kts | 129° |
| 2026-05-05 05:07 | 44.90493 | 7.51795 | 39006 ft | 471 kts | 140° |
| 2026-05-05 05:07 | 44.85813 | 7.58301 | 39005 ft | 470 kts | 141° |
| 2026-05-05 05:08 | 44.81100 | 7.64714 | 38998 ft | 471 kts | 141° |
| 2026-05-05 05:08 | 44.76421 | 7.71142 | 38998 ft | 471 kts | 141° |
| 2026-05-05 05:09 | 44.71768 | 7.77580 | 38993 ft | 471 kts | 141° |
| 2026-05-05 05:09 | 44.67069 | 7.84085 | 38997 ft | 471 kts | 141° |
| 2026-05-05 05:10 | 44.62415 | 7.90509 | 38997 ft | 471 kts | 141° |
| 2026-05-05 05:10 | 44.57753 | 7.96925 | 39003 ft | 471 kts | 141° |
| 2026-05-05 05:11 | 44.53059 | 8.03369 | 38998 ft | 472 kts | 141° |
| 2026-05-05 05:11 | 44.48349 | 8.09818 | 38991 ft | 472 kts | 141° |
| 2026-05-05 05:12 | 44.43673 | 8.16207 | 38998 ft | 472 kts | 141° |
| 2026-05-05 05:12 | 44.38962 | 8.22628 | 38990 ft | 472 kts | 141° |
| 2026-05-05 05:13 | 44.34273 | 8.29004 | 38987 ft | 472 kts | 141° |
| 2026-05-05 05:13 | 44.29552 | 8.35409 | 38961 ft | 472 kts | 141° |
| 2026-05-05 05:14 | 44.24838 | 8.41788 | 38969 ft | 473 kts | 141° |
| 2026-05-05 05:14 | 44.20121 | 8.48157 | 38961 ft | 473 kts | 141° |
| 2026-05-05 05:15 | 44.15375 | 8.54551 | 38952 ft | 473 kts | 141° |
| 2026-05-05 05:15 | 44.10656 | 8.60893 | 38949 ft | 473 kts | 141° |
| 2026-05-05 05:16 | 44.05930 | 8.67229 | 38939 ft | 473 kts | 141° |
| 2026-05-05 05:16 | 44.01166 | 8.73601 | 38927 ft | 474 kts | 141° |
| 2026-05-05 05:17 | 43.96424 | 8.79928 | 38932 ft | 475 kts | 141° |
| 2026-05-05 05:17 | 43.91665 | 8.86263 | 38931 ft | 475 kts | 141° |
| 2026-05-05 05:18 | 43.86871 | 8.92632 | 38929 ft | 475 kts | 142° |
| 2026-05-05 05:18 | 43.82105 | 8.98948 | 38933 ft | 475 kts | 142° |
| 2026-05-05 05:19 | 43.77347 | 9.05239 | 38929 ft | 475 kts | 142° |
| 2026-05-05 05:19 | 43.72549 | 9.11568 | 38927 ft | 475 kts | 142° |
| 2026-05-05 05:20 | 43.67770 | 9.17854 | 38936 ft | 476 kts | 142° |
| 2026-05-05 05:20 | 43.62957 | 9.24173 | 38930 ft | 477 kts | 142° |
| 2026-05-05 05:21 | 43.58177 | 9.30505 | 38968 ft | 478 kts | 141° |
| 2026-05-05 05:21 | 43.53428 | 9.36982 | 38987 ft | 480 kts | 140° |
| 2026-05-05 05:22 | 43.49197 | 9.42895 | 39027 ft | 481 kts | 140° |
| 2026-05-05 05:22 | 43.44530 | 9.49419 | 39019 ft | 481 kts | 140° |
| 2026-05-05 05:23 | 43.39800 | 9.55989 | 38947 ft | 483 kts | 140° |
| 2026-05-05 05:23 | 43.35081 | 9.62502 | 38939 ft | 483 kts | 140° |
| 2026-05-05 05:24 | 43.30313 | 9.69051 | 38969 ft | 482 kts | 140° |
| 2026-05-05 05:24 | 43.25569 | 9.75540 | 38955 ft | 483 kts | 140° |
| 2026-05-05 05:25 | 43.20807 | 9.82028 | 38927 ft | 484 kts | 140° |
| 2026-05-05 05:25 | 43.16036 | 9.88506 | 38904 ft | 484 kts | 141° |
| 2026-05-05 05:26 | 43.11248 | 9.94983 | 38934 ft | 483 kts | 141° |
| 2026-05-05 05:26 | 43.07527 | 9.99998 | 38941 ft | 484 kts | 141° |
| 2026-05-05 05:28 | 43.02802 | 10.06232 | 38885 ft | 485 kts | 142° |
| 2026-05-05 05:28 | 42.98244 | 10.12025 | 38876 ft | 484 kts | 143° |
| 2026-05-05 05:29 | 42.98112 | 10.12190 | 38867 ft | 484 kts | 143° |
| 2026-05-05 05:29 | 42.93917 | 10.17372 | 38897 ft | 484 kts | 143° |
| 2026-05-05 05:30 | 42.88845 | 10.23463 | 38856 ft | 485 kts | 144° |
| 2026-05-05 05:30 | 42.83738 | 10.29451 | 38833 ft | 486 kts | 145° |
| 2026-05-05 05:31 | 42.78636 | 10.35387 | 38862 ft | 476 kts | 144° |
| 2026-05-05 05:31 | 42.76128 | 10.38391 | 38736 ft | 481 kts | 144° |
| 2026-05-05 05:31 | 42.73639 | 10.41420 | 38483 ft | 487 kts | 143° |
| 2026-05-05 05:32 | 42.71110 | 10.44538 | 38244 ft | 493 kts | 143° |
| 2026-05-05 05:32 | 42.68564 | 10.47713 | 38185 ft | 494 kts | 143° |
| 2026-05-05 05:32 | 42.66098 | 10.50814 | 38305 ft | 492 kts | 142° |
| 2026-05-05 05:32 | 42.63599 | 10.53972 | 38561 ft | 487 kts | 142° |
| 2026-05-05 05:33 | 42.63567 | 10.54013 | 38557 ft | 487 kts | 142° |
| 2026-05-05 05:34 | 42.61361 | 10.56809 | 38708 ft | 484 kts | 142° |
| 2026-05-05 05:34 | 42.58884 | 10.59947 | 38716 ft | 485 kts | 142° |
| 2026-05-05 05:34 | 42.56402 | 10.63088 | 38563 ft | 490 kts | 142° |
| 2026-05-05 05:34 | 42.53890 | 10.66256 | 38305 ft | 495 kts | 142° |
| 2026-05-05 05:35 | 42.51353 | 10.69443 | 38164 ft | 498 kts | 143° |
| 2026-05-05 05:35 | 42.48826 | 10.72605 | 38188 ft | 498 kts | 143° |
| 2026-05-05 05:35 | 42.46288 | 10.75779 | 38342 ft | 495 kts | 143° |
| 2026-05-05 05:35 | 42.43756 | 10.78940 | 38524 ft | 492 kts | 143° |
| 2026-05-05 05:36 | 42.41265 | 10.82045 | 38600 ft | 491 kts | 143° |